Observation data for Sterling City on 07/11/2018      Previous  Date       Current Mesonet Observations  Soil Data  Daily Summary Page  Observations in Plain Language
KSC1 110500Z 19006KT 26/12 A3011 RMK A01 T02640116  RH  040%=      5-min Rain = 0
KSC1 110501Z 19007KT 26/12 A3011 RMK A01 T02640117  RH  040%=      5-min Rain = 0
KSC1 110502Z 19007KT 26/12 A3011 RMK A01 T02640117  RH  040%=      5-min Rain = 0
KSC1 110503Z 19007KT 26/12 A3011 RMK A01 T02630117  RH  040%=      5-min Rain = 0
KSC1 110504Z 19006KT 26/12 A3011 RMK A01 T02630116  RH  040%=      5-min Rain = 0
KSC1 110505Z 19006KT 26/12 A3011 RMK A01 T02630116  RH  040%=      5-min Rain = 0
KSC1 110506Z 19006KT 26/12 A3011 RMK A01 T02620117  RH  040%=      5-min Rain = 0
KSC1 110507Z 19006KT 26/12 A3011 RMK A01 T02610117  RH  041%=      5-min Rain = 0
KSC1 110508Z 19006KT 26/12 A3011 RMK A01 T02610117  RH  041%=      5-min Rain = 0
KSC1 110509Z 19007KT 26/12 A3011 RMK A01 T02600117  RH  041%=      5-min Rain = 0
KSC1 110510Z 19006KT 26/12 A3011 RMK A01 T02600118  RH  041%=      5-min Rain = 0
KSC1 110511Z 19007KT 26/12 A3011 RMK A01 T02590117  RH  041%=      5-min Rain = 0
KSC1 110512Z 19007KT 26/12 A3011 RMK A01 T02590118  RH  041%=      5-min Rain = 0
KSC1 110513Z 19006KT 26/12 A3011 RMK A01 T02590118  RH  041%=      5-min Rain = 0
KSC1 110514Z 19007KT 26/12 A3011 RMK A01 T02590118  RH  041%=      5-min Rain = 0
KSC1 110515Z 19006KT 26/12 A3011 RMK A01 T02590118  RH  041%=      5-min Rain = 0
KSC1 110516Z 19006KT 26/12 A3011 RMK A01 T02590118  RH  041%=      5-min Rain = 0
KSC1 110517Z 19006KT 26/12 A3011 RMK A01 T02590118  RH  041%=      5-min Rain = 0
KSC1 110518Z 19006KT 26/12 A3011 RMK A01 T02580118  RH  042%=      5-min Rain = 0
KSC1 110519Z 19006KT 26/12 A3011 RMK A01 T02580118  RH  042%=      5-min Rain = 0
KSC1 110520Z 19007KT 26/12 A3011 RMK A01 T02570118  RH  042%=      5-min Rain = 0
KSC1 110521Z 19007KT 26/12 A3011 RMK A01 T02580118  RH  042%=      5-min Rain = 0
KSC1 110522Z 19006KT 26/12 A3011 RMK A01 T02580118  RH  042%=      5-min Rain = 0
KSC1 110523Z 19006KT 26/12 A3011 RMK A01 T02580119  RH  042%=      5-min Rain = 0
KSC1 110524Z 19005KT 26/12 A3011 RMK A01 T02580119  RH  042%=      5-min Rain = 0
KSC1 110525Z 19006KT 26/12 A3011 RMK A01 T02580119  RH  042%=      5-min Rain = 0
KSC1 110526Z 19005KT 26/12 A3011 RMK A01 T02580119  RH  042%=      5-min Rain = 0
KSC1 110527Z 20005KT 26/12 A3011 RMK A01 T02570120  RH  042%=      5-min Rain = 0
KSC1 110528Z 19006KT 26/12 A3011 RMK A01 T02560120  RH  043%=      5-min Rain = 0
KSC1 110529Z 19006KT 26/12 A3011 RMK A01 T02560120  RH  043%=      5-min Rain = 0
KSC1 110530Z 19006KT 26/12 A3011 RMK A01 T02560120  RH  043%=      5-min Rain = 0
KSC1 110531Z 19006KT 26/12 A3011 RMK A01 T02550120  RH  043%=      5-min Rain = 0
KSC1 110532Z 19006KT 26/12 A3011 RMK A01 T02550120  RH  043%=      5-min Rain = 0
KSC1 110533Z 19006KT 26/12 A3011 RMK A01 T02550120  RH  043%=      5-min Rain = 0
KSC1 110534Z 19006KT 26/12 A3011 RMK A01 T02550121  RH  043%=      5-min Rain = 0
KSC1 110535Z 19006KT 25/12 A3011 RMK A01 T02540121  RH  043%=      5-min Rain = 0
KSC1 110536Z 19006KT 25/12 A3011 RMK A01 T02540121  RH  043%=      5-min Rain = 0
KSC1 110537Z 19006KT 25/12 A3011 RMK A01 T02540120  RH  043%=      5-min Rain = 0
KSC1 110538Z 19006KT 25/12 A3011 RMK A01 T02540120  RH  043%=      5-min Rain = 0
KSC1 110539Z 19006KT 25/12 A3011 RMK A01 T02540121  RH  043%=      5-min Rain = 0
KSC1 110540Z 19006KT 25/12 A3011 RMK A01 T02540121  RH  043%=      5-min Rain = 0
KSC1 110541Z 19007KT 25/12 A3011 RMK A01 T02540121  RH  043%=      5-min Rain = 0
KSC1 110542Z 19006KT 25/12 A3011 RMK A01 T02540121  RH  043%=      5-min Rain = 0
KSC1 110543Z 19007KT 25/12 A3011 RMK A01 T02540121  RH  043%=      5-min Rain = 0
KSC1 110544Z 19007KT 25/12 A3011 RMK A01 T02540121  RH  044%=      5-min Rain = 0
KSC1 110545Z 19006KT 25/12 A3011 RMK A01 T02540122  RH  044%=      5-min Rain = 0
KSC1 110546Z 19006KT 25/12 A3011 RMK A01 T02540122  RH  044%=      5-min Rain = 0
KSC1 110547Z 19008KT 25/12 A3011 RMK A01 T02540123  RH  044%=      5-min Rain = 0
KSC1 110548Z 19007KT 25/12 A3011 RMK A01 T02540123  RH  044%=      5-min Rain = 0
KSC1 110549Z 19007KT 26/12 A3011 RMK A01 T02550123  RH  044%=      5-min Rain = 0
KSC1 110550Z 19007KT 26/12 A3011 RMK A01 T02550123  RH  044%=      5-min Rain = 0
KSC1 110551Z 19007KT 26/12 A3011 RMK A01 T02550124  RH  044%=      5-min Rain = 0
KSC1 110552Z 18007KT 26/12 A3011 RMK A01 T02560124  RH  044%=      5-min Rain = 0
KSC1 110553Z 19008KT 26/12 A3011 RMK A01 T02560124  RH  044%=      5-min Rain = 0
KSC1 110554Z 19008KT 26/13 A3011 RMK A01 T02560125  RH  044%=      5-min Rain = 0
KSC1 110555Z 19009KT 26/12 A3011 RMK A01 T02560124  RH  044%=      5-min Rain = 0
KSC1 110556Z 19007KT 26/13 A3011 RMK A01 T02570125  RH  044%=      5-min Rain = 0
KSC1 110557Z 19008KT 26/13 A3011 RMK A01 T02570125  RH  044%=      5-min Rain = 0
KSC1 110558Z 19009KT 26/13 A3011 RMK A01 T02570125  RH  044%=      5-min Rain = 0
KSC1 110559Z 18007KT 26/13 A3011 RMK A01 T02570125  RH  044%=      5-min Rain = 0
KSC1 110600Z 18008KT 26/13 A3011 RMK A01 T02570126  RH  044%=      5-min Rain = 0
KSC1 110601Z 18009KT 26/13 A3011 RMK A01 T02570126  RH  044%=      5-min Rain = 0
KSC1 110602Z 19010KT 26/13 A3011 RMK A01 T02570126  RH  044%=      5-min Rain = 0
KSC1 110603Z 18008KT 26/13 A3011 RMK A01 T02570126  RH  044%=      5-min Rain = 0
KSC1 110604Z 19009KT 26/13 A3011 RMK A01 T02570126  RH  044%=      5-min Rain = 0
KSC1 110605Z 18009KT 26/13 A3011 RMK A01 T02570126  RH  044%=      5-min Rain = 0
KSC1 110606Z 18008KT 26/13 A3011 RMK A01 T02570127  RH  044%=      5-min Rain = 0
KSC1 110607Z 18009KT 26/13 A3011 RMK A01 T02580127  RH  044%=      5-min Rain = 0
KSC1 110608Z 18008KT 26/13 A3011 RMK A01 T02580127  RH  044%=      5-min Rain = 0
KSC1 110609Z 18007KT 26/13 A3011 RMK A01 T02580127  RH  044%=      5-min Rain = 0
KSC1 110610Z 18008KT 26/13 A3011 RMK A01 T02570128  RH  045%=      5-min Rain = 0
KSC1 110611Z 18010KT 26/13 A3011 RMK A01 T02560127  RH  045%=      5-min Rain = 0
KSC1 110612Z 18008KT 26/13 A3011 RMK A01 T02560128  RH  045%=      5-min Rain = 0
KSC1 110613Z 18008KT 26/13 A3011 RMK A01 T02560128  RH  045%=      5-min Rain = 0
KSC1 110614Z 18009KT 26/13 A3011 RMK A01 T02560128  RH  045%=      5-min Rain = 0
KSC1 110615Z 18010KT 26/13 A3011 RMK A01 T02560129  RH  045%=      5-min Rain = 0
KSC1 110616Z 18010KT 26/13 A3011 RMK A01 T02560129  RH  045%=      5-min Rain = 0
KSC1 110617Z 18009KT 26/13 A3011 RMK A01 T02570130  RH  045%=      5-min Rain = 0
KSC1 110618Z 18008KT 26/13 A3011 RMK A01 T02570131  RH  046%=      5-min Rain = 0
KSC1 110619Z 18009KT 26/13 A3011 RMK A01 T02570131  RH  046%=      5-min Rain = 0
KSC1 110620Z 18009KT 26/13 A3011 RMK A01 T02560131  RH  046%=      5-min Rain = 0
KSC1 110621Z 18009KT 26/13 A3011 RMK A01 T02560132  RH  046%=      5-min Rain = 0
KSC1 110622Z 19010KT 26/13 A3011 RMK A01 T02550132  RH  047%=      5-min Rain = 0
KSC1 110623Z 18009KT 26/13 A3011 RMK A01 T02550133  RH  047%=      5-min Rain = 0
KSC1 110624Z 18008KT 25/13 A3011 RMK A01 T02540133  RH  047%=      5-min Rain = 0
KSC1 110625Z 19009KT 25/13 A3011 RMK A01 T02530132  RH  047%=      5-min Rain = 0
KSC1 110626Z 19008KT 25/13 A3011 RMK A01 T02530133  RH  047%=      5-min Rain = 0
KSC1 110627Z 18008KT 25/13 A3011 RMK A01 T02520133  RH  048%=      5-min Rain = 0
KSC1 110628Z 18010KT 25/13 A3011 RMK A01 T02510133  RH  048%=      5-min Rain = 0
KSC1 110629Z 18008KT 25/13 A3011 RMK A01 T02510133  RH  048%=      5-min Rain = 0
KSC1 110630Z 18009KT 25/13 A3011 RMK A01 T02510134  RH  048%=      5-min Rain = 0
KSC1 110631Z 18008KT 25/13 A3011 RMK A01 T02510134  RH  048%=      5-min Rain = 0
KSC1 110632Z 19010KT 25/14 A3011 RMK A01 T02510135  RH  049%=      5-min Rain = 0
KSC1 110633Z 18008KT 25/14 A3011 RMK A01 T02510135  RH  049%=      5-min Rain = 0
KSC1 110634Z 19008KT 25/14 A3011 RMK A01 T02510136  RH  049%=      5-min Rain = 0
KSC1 110635Z 18010KT 25/14 A3011 RMK A01 T02500137  RH  049%=      5-min Rain = 0
KSC1 110636Z 18008KT 25/14 A3011 RMK A01 T02500137  RH  049%=      5-min Rain = 0
KSC1 110637Z 18009KT 25/14 A3011 RMK A01 T02500138  RH  050%=      5-min Rain = 0
KSC1 110638Z 19008KT 25/14 A3011 RMK A01 T02500139  RH  050%=      5-min Rain = 0
KSC1 110639Z 19007KT 25/14 A3011 RMK A01 T02500139  RH  050%=      5-min Rain = 0
KSC1 110640Z 18007KT 25/14 A3011 RMK A01 T02500139  RH  050%=      5-min Rain = 0
KSC1 110641Z 19010KT 25/14 A3011 RMK A01 T02490139  RH  051%=      5-min Rain = 0
KSC1 110642Z 19009KT 25/14 A3011 RMK A01 T02480140  RH  051%=      5-min Rain = 0
KSC1 110643Z 19008KT 25/14 A3011 RMK A01 T02480140  RH  051%=      5-min Rain = 0
KSC1 110644Z 18009KT 25/14 A3011 RMK A01 T02480141  RH  051%=      5-min Rain = 0
KSC1 110645Z 19009KT 25/14 A3011 RMK A01 T02480141  RH  051%=      5-min Rain = 0
KSC1 110646Z 19007KT 25/14 A3011 RMK A01 T02470141  RH  052%=      5-min Rain = 0
KSC1 110647Z 18009KT 25/14 A3011 RMK A01 T02470142  RH  052%=      5-min Rain = 0
KSC1 110648Z 18009KT 25/14 A3011 RMK A01 T02460142  RH  052%=      5-min Rain = 0
KSC1 110649Z 19010KT 25/14 A3011 RMK A01 T02460143  RH  052%=      5-min Rain = 0
KSC1 110650Z 18011KT 25/14 A3011 RMK A01 T02470143  RH  052%=      5-min Rain = 0
KSC1 110651Z 18009KT 25/14 A3011 RMK A01 T02480143  RH  052%=      5-min Rain = 0
KSC1 110652Z 18009KT 25/14 A3011 RMK A01 T02480144  RH  052%=      5-min Rain = 0
KSC1 110653Z 19009KT 25/14 A3011 RMK A01 T02480144  RH  052%=      5-min Rain = 0
KSC1 110654Z 18009KT 25/14 A3011 RMK A01 T02480144  RH  053%=      5-min Rain = 0
KSC1 110655Z 18008KT 25/14 A3011 RMK A01 T02480144  RH  053%=      5-min Rain = 0
KSC1 110656Z 18010KT 25/15 A3011 RMK A01 T02470145  RH  053%=      5-min Rain = 0
KSC1 110657Z 18009KT 25/15 A3011 RMK A01 T02470145  RH  053%=      5-min Rain = 0
KSC1 110658Z 18007KT 25/15 A3011 RMK A01 T02480145  RH  053%=      5-min Rain = 0
KSC1 110659Z 18008KT 25/15 A3011 RMK A01 T02480146  RH  053%=      5-min Rain = 0
KSC1 110700Z 18009KT 25/15 A3011 RMK A01 T02480146  RH  053%=      5-min Rain = 0
KSC1 110701Z 18009KT 25/15 A3011 RMK A01 T02470147  RH  053%=      5-min Rain = 0
KSC1 110702Z 18008KT 25/15 A3011 RMK A01 T02480147  RH  054%=      5-min Rain = 0
KSC1 110703Z 18008KT 25/15 A3011 RMK A01 T02480147  RH  053%=      5-min Rain = 0
KSC1 110704Z 17008KT 25/15 A3011 RMK A01 T02480148  RH  054%=      5-min Rain = 0
KSC1 110705Z 18007KT 25/15 A3011 RMK A01 T02480148  RH  054%=      5-min Rain = 0
KSC1 110706Z 18008KT 25/15 A3011 RMK A01 T02480149  RH  054%=      5-min Rain = 0
KSC1 110707Z 18008KT 25/15 A3011 RMK A01 T02480149  RH  054%=      5-min Rain = 0
KSC1 110708Z 17008KT 25/15 A3011 RMK A01 T02480149  RH  054%=      5-min Rain = 0
KSC1 110709Z 18008KT 25/15 A3011 RMK A01 T02480150  RH  055%=      5-min Rain = 0
KSC1 110710Z 18009KT 25/15 A3011 RMK A01 T02470150  RH  055%=      5-min Rain = 0
KSC1 110711Z 18006KT 25/15 A3011 RMK A01 T02470150  RH  055%=      5-min Rain = 0
KSC1 110712Z 17008KT 25/15 A3011 RMK A01 T02470151  RH  055%=      5-min Rain = 0
KSC1 110713Z 17008KT 25/15 A3011 RMK A01 T02480151  RH  055%=      5-min Rain = 0
KSC1 110714Z 17007KT 25/15 A3011 RMK A01 T02470151  RH  055%=      5-min Rain = 0
KSC1 110715Z 17008KT 25/15 A3011 RMK A01 T02470152  RH  055%=      5-min Rain = 0
KSC1 110716Z 17007KT 25/15 A3011 RMK A01 T02460152  RH  056%=      5-min Rain = 0
KSC1 110717Z 17008KT 25/15 A3011 RMK A01 T02460152  RH  056%=      5-min Rain = 0
KSC1 110718Z 17006KT 25/15 A3011 RMK A01 T02460152  RH  056%=      5-min Rain = 0
KSC1 110719Z 17008KT 25/15 A3011 RMK A01 T02450153  RH  056%=      5-min Rain = 0
KSC1 110720Z 17007KT 25/15 A3011 RMK A01 T02450153  RH  056%=      5-min Rain = 0
KSC1 110721Z 16007KT 25/15 A3011 RMK A01 T02450153  RH  056%=      5-min Rain = 0
KSC1 110722Z 16007KT 25/15 A3011 RMK A01 T02450153  RH  056%=      5-min Rain = 0
KSC1 110723Z 16007KT 25/15 A3011 RMK A01 T02450153  RH  057%=      5-min Rain = 0
KSC1 110724Z 17007KT 24/15 A3011 RMK A01 T02440154  RH  057%=      5-min Rain = 0
KSC1 110725Z 17007KT 24/15 A3011 RMK A01 T02440153  RH  057%=      5-min Rain = 0
KSC1 110726Z 17007KT 24/15 A3011 RMK A01 T02440154  RH  057%=      5-min Rain = 0
KSC1 110727Z 17008KT 24/15 A3011 RMK A01 T02440154  RH  057%=      5-min Rain = 0
KSC1 110728Z 17008KT 24/15 A3011 RMK A01 T02440154  RH  058%=      5-min Rain = 0
KSC1 110729Z 17008G13KT 24/15 A3011 RMK A01 T02440154  RH  057%=      5-min Rain = 0
KSC1 110730Z 18008KT 24/16 A3011 RMK A01 T02440155  RH  057%=      5-min Rain = 0
KSC1 110731Z 17009KT 24/16 A3011 RMK A01 T02440155  RH  057%=      5-min Rain = 0
KSC1 110732Z 18008KT 25/16 A3011 RMK A01 T02450155  RH  057%=      5-min Rain = 0
KSC1 110733Z 18008KT 25/16 A3011 RMK A01 T02460155  RH  057%=      5-min Rain = 0
KSC1 110734Z 18009KT 25/16 A3011 RMK A01 T02460156  RH  057%=      5-min Rain = 0
KSC1 110735Z 18009KT 25/16 A3011 RMK A01 T02470156  RH  057%=      5-min Rain = 0
KSC1 110736Z 18009KT 25/16 A3011 RMK A01 T02470156  RH  057%=      5-min Rain = 0
KSC1 110737Z 18010KT 25/16 A3011 RMK A01 T02470156  RH  057%=      5-min Rain = 0
KSC1 110738Z 18009KT 25/16 A3011 RMK A01 T02470156  RH  057%=      5-min Rain = 0
KSC1 110739Z 19009KT 25/16 A3011 RMK A01 T02480156  RH  057%=      5-min Rain = 0
KSC1 110740Z 18009KT 25/16 A3011 RMK A01 T02480156  RH  057%=      5-min Rain = 0
KSC1 110741Z 18010KT 25/16 A3011 RMK A01 T02480156  RH  057%=      5-min Rain = 0
KSC1 110742Z 18010KT 25/16 A3011 RMK A01 T02480156  RH  057%=      5-min Rain = 0
KSC1 110743Z 18009KT 25/16 A3011 RMK A01 T02490157  RH  057%=      5-min Rain = 0
KSC1 110744Z 18010KT 25/16 A3011 RMK A01 T02480157  RH  057%=      5-min Rain = 0
KSC1 110745Z 18011KT 25/16 A3011 RMK A01 T02490157  RH  057%=      5-min Rain = 0
KSC1 110746Z 18010KT 25/16 A3011 RMK A01 T02490157  RH  057%=      5-min Rain = 0
KSC1 110747Z 18010KT 25/16 A3011 RMK A01 T02490157  RH  057%=      5-min Rain = 0
KSC1 110748Z 18009KT 25/16 A3011 RMK A01 T02490157  RH  057%=      5-min Rain = 0
KSC1 110749Z 18009KT 25/16 A3011 RMK A01 T02490157  RH  057%=      5-min Rain = 0
KSC1 110750Z 18010KT 25/16 A3011 RMK A01 T02490158  RH  057%=      5-min Rain = 0
KSC1 110751Z 18010KT 25/16 A3011 RMK A01 T02490158  RH  057%=      5-min Rain = 0
KSC1 110752Z 18010KT 25/16 A3011 RMK A01 T02490158  RH  057%=      5-min Rain = 0
KSC1 110753Z 18010G15KT 25/16 A3011 RMK A01 T02490158  RH  057%=      5-min Rain = 0
KSC1 110754Z 18008KT 25/16 A3011 RMK A01 T02490158  RH  057%=      5-min Rain = 0
KSC1 110755Z 18010KT 25/16 A3011 RMK A01 T02480158  RH  057%=      5-min Rain = 0
KSC1 110756Z 18009KT 25/16 A3011 RMK A01 T02480158  RH  057%=      5-min Rain = 0
KSC1 110757Z 18009KT 25/16 A3011 RMK A01 T02480158  RH  057%=      5-min Rain = 0
KSC1 110758Z 18010KT 25/16 A3011 RMK A01 T02470157  RH  057%=      5-min Rain = 0
KSC1 110759Z 18009KT 25/16 A3011 RMK A01 T02470158  RH  057%=      5-min Rain = 0
KSC1 110800Z 18010KT 25/16 A3011 RMK A01 T02470158  RH  058%=      5-min Rain = 0
KSC1 110801Z 18009KT 25/16 A3011 RMK A01 T02470158  RH  058%=      5-min Rain = 0
KSC1 110802Z 18010KT 25/16 A3011 RMK A01 T02470158  RH  058%=      5-min Rain = 0
KSC1 110803Z 18008KT 25/16 A3011 RMK A01 T02470158  RH  058%=      5-min Rain = 0
KSC1 110804Z 18009KT 25/16 A3011 RMK A01 T02470158  RH  058%=      5-min Rain = 0
KSC1 110805Z 18008KT 25/16 A3011 RMK A01 T02470159  RH  058%=      5-min Rain = 0
KSC1 110806Z 18008KT 25/16 A3011 RMK A01 T02470159  RH  058%=      5-min Rain = 0
KSC1 110807Z 17009KT 25/16 A3011 RMK A01 T02460158  RH  058%=      5-min Rain = 0
KSC1 110808Z 18007KT 25/16 A3011 RMK A01 T02460159  RH  058%=      5-min Rain = 0
KSC1 110809Z 18008KT 25/16 A3011 RMK A01 T02460159  RH  058%=      5-min Rain = 0
KSC1 110810Z 18009KT 25/16 A3011 RMK A01 T02460159  RH  058%=      5-min Rain = 0
KSC1 110811Z 18008KT 25/16 A3011 RMK A01 T02460159  RH  058%=      5-min Rain = 0
KSC1 110812Z 18008KT 25/16 A3011 RMK A01 T02460159  RH  058%=      5-min Rain = 0
KSC1 110813Z 18009KT 25/16 A3011 RMK A01 T02460159  RH  058%=      5-min Rain = 0
KSC1 110814Z 19009KT 25/16 A3011 RMK A01 T02460159  RH  058%=      5-min Rain = 0
KSC1 110815Z 18009KT 25/16 A3011 RMK A01 T02460159  RH  058%=      5-min Rain = 0
KSC1 110816Z 19009KT 25/16 A3011 RMK A01 T02460159  RH  058%=      5-min Rain = 0
KSC1 110817Z 18007KT 25/16 A3011 RMK A01 T02460159  RH  058%=      5-min Rain = 0
KSC1 110818Z 18009KT 25/16 A3011 RMK A01 T02460159  RH  059%=      5-min Rain = 0
KSC1 110819Z 18010KT 25/16 A3011 RMK A01 T02450159  RH  059%=      5-min Rain = 0
KSC1 110820Z 18009KT 25/16 A3011 RMK A01 T02450159  RH  059%=      5-min Rain = 0
KSC1 110821Z 18008KT 25/16 A3011 RMK A01 T02450159  RH  059%=      5-min Rain = 0
KSC1 110822Z 18008KT 25/16 A3011 RMK A01 T02450160  RH  059%=      5-min Rain = 0
KSC1 110823Z 19010KT 25/16 A3011 RMK A01 T02450159  RH  059%=      5-min Rain = 0
KSC1 110824Z 18008KT 25/16 A3011 RMK A01 T02450160  RH  059%=      5-min Rain = 0
KSC1 110825Z 18008KT 25/16 A3011 RMK A01 T02450160  RH  059%=      5-min Rain = 0
KSC1 110826Z 18009KT 25/16 A3011 RMK A01 T02450160  RH  059%=      5-min Rain = 0
KSC1 110827Z 18009KT 25/16 A3011 RMK A01 T02450160  RH  059%=      5-min Rain = 0
KSC1 110828Z 18008KT 25/16 A3011 RMK A01 T02450160  RH  059%=      5-min Rain = 0
KSC1 110829Z 18009KT 25/16 A3011 RMK A01 T02450160  RH  059%=      5-min Rain = 0
KSC1 110830Z 18010KT 25/16 A3011 RMK A01 T02450160  RH  059%=      5-min Rain = 0
KSC1 110831Z 18009KT 25/16 A3011 RMK A01 T02460160  RH  059%=      5-min Rain = 0
KSC1 110832Z 18010KT 25/16 A3011 RMK A01 T02460161  RH  059%=      5-min Rain = 0
KSC1 110833Z 18008KT 25/16 A3011 RMK A01 T02460161  RH  059%=      5-min Rain = 0
KSC1 110834Z 18010KT 25/16 A3011 RMK A01 T02460161  RH  059%=      5-min Rain = 0
KSC1 110835Z 18010KT 25/16 A3011 RMK A01 T02460161  RH  059%=      5-min Rain = 0
KSC1 110836Z 18010KT 25/16 A3011 RMK A01 T02460161  RH  059%=      5-min Rain = 0
KSC1 110837Z 18009KT 25/16 A3011 RMK A01 T02460161  RH  059%=      5-min Rain = 0
KSC1 110838Z 18011KT 25/16 A3011 RMK A01 T02460161  RH  059%=      5-min Rain = 0
KSC1 110839Z 18009KT 25/16 A3011 RMK A01 T02460161  RH  059%=      5-min Rain = 0
KSC1 110840Z 17010KT 25/16 A3011 RMK A01 T02460162  RH  060%=      5-min Rain = 0
KSC1 110841Z 17011KT 25/16 A3011 RMK A01 T02450162  RH  060%=      5-min Rain = 0
KSC1 110842Z 18010KT 25/16 A3011 RMK A01 T02450162  RH  060%=      5-min Rain = 0
KSC1 110843Z 17009KT 25/16 A3011 RMK A01 T02450162  RH  060%=      5-min Rain = 0
KSC1 110844Z 18011KT 25/16 A3011 RMK A01 T02450162  RH  060%=      5-min Rain = 0
KSC1 110845Z 17009KT 25/16 A3011 RMK A01 T02450162  RH  060%=      5-min Rain = 0
KSC1 110846Z 17010KT 25/16 A3011 RMK A01 T02450162  RH  060%=      5-min Rain = 0
KSC1 110847Z 17010KT 25/16 A3011 RMK A01 T02450163  RH  060%=      5-min Rain = 0
KSC1 110848Z 17008KT 25/16 A3011 RMK A01 T02450162  RH  060%=      5-min Rain = 0
KSC1 110849Z 17010KT 24/16 A3011 RMK A01 T02440162  RH  060%=      5-min Rain = 0
KSC1 110850Z 17008KT 24/16 A3011 RMK A01 T02440163  RH  060%=      5-min Rain = 0
KSC1 110851Z 17010KT 24/16 A3011 RMK A01 T02440163  RH  060%=      5-min Rain = 0
KSC1 110852Z 17009KT 24/16 A3011 RMK A01 T02440163  RH  061%=      5-min Rain = 0
KSC1 110853Z 17010KT 24/16 A3011 RMK A01 T02440163  RH  061%=      5-min Rain = 0
KSC1 110854Z 17010KT 24/16 A3011 RMK A01 T02440163  RH  061%=      5-min Rain = 0
KSC1 110855Z 17009KT 24/16 A3011 RMK A01 T02440163  RH  061%=      5-min Rain = 0
KSC1 110856Z 17009KT 24/16 A3011 RMK A01 T02430163  RH  061%=      5-min Rain = 0
KSC1 110857Z 17009KT 24/16 A3011 RMK A01 T02430162  RH  061%=      5-min Rain = 0
KSC1 110858Z 17009KT 24/16 A3011 RMK A01 T02420163  RH  061%=      5-min Rain = 0
KSC1 110859Z 17010KT 24/16 A3011 RMK A01 T02410162  RH  061%=      5-min Rain = 0
KSC1 110900Z 16007KT 24/16 A3011 RMK A01 T02410163  RH  061%=      5-min Rain = 0
KSC1 110901Z 16008KT 24/16 A3011 RMK A01 T02410163  RH  062%=      5-min Rain = 0
KSC1 110902Z 17009KT 24/16 A3011 RMK A01 T02410163  RH  062%=      5-min Rain = 0
KSC1 110903Z 17009KT 24/16 A3011 RMK A01 T02410163  RH  062%=      5-min Rain = 0
KSC1 110904Z 16009KT 24/16 A3011 RMK A01 T02410163  RH  062%=      5-min Rain = 0
KSC1 110905Z 17008KT 24/16 A3011 RMK A01 T02410163  RH  062%=      5-min Rain = 0
KSC1 110906Z 17009KT 24/16 A3011 RMK A01 T02400163  RH  062%=      5-min Rain = 0
KSC1 110907Z 17009KT 24/16 A3011 RMK A01 T02400163  RH  062%=      5-min Rain = 0
KSC1 110908Z 17009KT 24/16 A3011 RMK A01 T02400163  RH  062%=      5-min Rain = 0
KSC1 110909Z 17009KT 24/16 A3011 RMK A01 T02400163  RH  062%=      5-min Rain = 0
KSC1 110910Z 17008KT 24/16 A3011 RMK A01 T02400163  RH  062%=      5-min Rain = 0
KSC1 110911Z 17009KT 24/16 A3011 RMK A01 T02390163  RH  062%=      5-min Rain = 0
KSC1 110912Z 17008KT 24/16 A3011 RMK A01 T02390163  RH  062%=      5-min Rain = 0
KSC1 110913Z 16008KT 24/16 A3011 RMK A01 T02390163  RH  062%=      5-min Rain = 0
KSC1 110914Z 17008KT 24/16 A3011 RMK A01 T02390163  RH  063%=      5-min Rain = 0
KSC1 110915Z 17008KT 24/16 A3011 RMK A01 T02380163  RH  063%=      5-min Rain = 0
KSC1 110916Z 16008KT 24/16 A3011 RMK A01 T02380164  RH  063%=      5-min Rain = 0
KSC1 110917Z 16008KT 24/16 A3011 RMK A01 T02380163  RH  063%=      5-min Rain = 0
KSC1 110918Z 16009KT 24/16 A3011 RMK A01 T02380164  RH  063%=      5-min Rain = 0
KSC1 110919Z 16008KT 24/16 A3011 RMK A01 T02370164  RH  063%=      5-min Rain = 0
KSC1 110920Z 17009KT 24/16 A3011 RMK A01 T02370164  RH  063%=      5-min Rain = 0
KSC1 110921Z 16008KT 24/16 A3011 RMK A01 T02370164  RH  064%=      5-min Rain = 0
KSC1 110922Z 17008KT 24/16 A3011 RMK A01 T02360164  RH  064%=      5-min Rain = 0
KSC1 110923Z 17009KT 24/16 A3011 RMK A01 T02360164  RH  064%=      5-min Rain = 0
KSC1 110924Z 17009KT 24/16 A3011 RMK A01 T02360164  RH  064%=      5-min Rain = 0
KSC1 110925Z 16008KT 24/16 A3011 RMK A01 T02360164  RH  064%=      5-min Rain = 0
KSC1 110926Z 16008KT 24/16 A3011 RMK A01 T02360164  RH  064%=      5-min Rain = 0
KSC1 110927Z 16008KT 24/16 A3011 RMK A01 T02350164  RH  064%=      5-min Rain = 0
KSC1 110928Z 16008KT 24/16 A3011 RMK A01 T02350164  RH  065%=      5-min Rain = 0
KSC1 110929Z 16007KT 23/16 A3011 RMK A01 T02340164  RH  065%=      5-min Rain = 0
KSC1 110930Z 17007KT 23/16 A3011 RMK A01 T02340164  RH  065%=      5-min Rain = 0
KSC1 110931Z 16007KT 23/16 A3011 RMK A01 T02330164  RH  065%=      5-min Rain = 0
KSC1 110932Z 16008KT 23/16 A3011 RMK A01 T02330164  RH  065%=      5-min Rain = 0
KSC1 110933Z 16008KT 23/16 A3011 RMK A01 T02330164  RH  065%=      5-min Rain = 0
KSC1 110934Z 17007KT 23/17 A3011 RMK A01 T02330165  RH  066%=      5-min Rain = 0
KSC1 110935Z 16007KT 23/17 A3011 RMK A01 T02320165  RH  066%=      5-min Rain = 0
KSC1 110936Z 17008KT 23/17 A3011 RMK A01 T02320165  RH  066%=      5-min Rain = 0
KSC1 110937Z 17007KT 23/17 A3011 RMK A01 T02320165  RH  066%=      5-min Rain = 0
KSC1 110938Z 17006KT 23/17 A3011 RMK A01 T02320165  RH  066%=      5-min Rain = 0
KSC1 110939Z 17007KT 23/17 A3011 RMK A01 T02320165  RH  066%=      5-min Rain = 0
KSC1 110940Z 17006KT 23/17 A3011 RMK A01 T02310165  RH  066%=      5-min Rain = 0
KSC1 110941Z 17007KT 23/17 A3011 RMK A01 T02310165  RH  066%=      5-min Rain = 0
KSC1 110942Z 16007KT 23/17 A3011 RMK A01 T02310165  RH  066%=      5-min Rain = 0
KSC1 110943Z 16006KT 23/17 A3011 RMK A01 T02310165  RH  067%=      5-min Rain = 0
KSC1 110944Z 16008KT 23/17 A3011 RMK A01 T02310165  RH  067%=      5-min Rain = 0
KSC1 110945Z 16007KT 23/17 A3011 RMK A01 T02300165  RH  067%=      5-min Rain = 0
KSC1 110946Z 16008KT 23/17 A3011 RMK A01 T02310165  RH  067%=      5-min Rain = 0
KSC1 110947Z 16007KT 23/17 A3011 RMK A01 T02310165  RH  067%=      5-min Rain = 0
KSC1 110948Z 17007KT 23/17 A3011 RMK A01 T02300165  RH  067%=      5-min Rain = 0
KSC1 110949Z 17008KT 23/17 A3011 RMK A01 T02310166  RH  067%=      5-min Rain = 0
KSC1 110950Z 16007KT 23/17 A3011 RMK A01 T02310166  RH  067%=      5-min Rain = 0
KSC1 110951Z 17006KT 23/17 A3011 RMK A01 T02300166  RH  067%=      5-min Rain = 0
KSC1 110952Z 17007KT 23/17 A3011 RMK A01 T02310166  RH  067%=      5-min Rain = 0
KSC1 110953Z 16006KT 23/17 A3011 RMK A01 T02300166  RH  067%=      5-min Rain = 0
KSC1 110954Z 17007KT 23/17 A3011 RMK A01 T02310167  RH  067%=      5-min Rain = 0
KSC1 110955Z 16007KT 23/17 A3011 RMK A01 T02300167  RH  067%=      5-min Rain = 0
KSC1 110956Z 16007KT 23/17 A3011 RMK A01 T02300167  RH  067%=      5-min Rain = 0
KSC1 110957Z 16007KT 23/17 A3011 RMK A01 T02300167  RH  067%=      5-min Rain = 0
KSC1 110958Z 16006KT 23/17 A3011 RMK A01 T02300167  RH  067%=      5-min Rain = 0
KSC1 110959Z 16007KT 23/17 A3011 RMK A01 T02300167  RH  067%=      5-min Rain = 0
KSC1 111000Z 16007KT 23/17 A3011 RMK A01 T02300167  RH  067%=      5-min Rain = 0
KSC1 111001Z 16007KT 23/17 A3011 RMK A01 T02300167  RH  068%=      5-min Rain = 0
KSC1 111002Z 16005KT 23/17 A3011 RMK A01 T02300167  RH  068%=      5-min Rain = 0
KSC1 111003Z 16005KT 23/17 A3011 RMK A01 T02300167  RH  068%=      5-min Rain = 0
KSC1 111004Z 16005KT 23/17 A3011 RMK A01 T02290167  RH  068%=      5-min Rain = 0
KSC1 111005Z 16006KT 23/17 A3011 RMK A01 T02290168  RH  068%=      5-min Rain = 0
KSC1 111006Z 17005KT 23/17 A3011 RMK A01 T02280167  RH  069%=      5-min Rain = 0
KSC1 111007Z 17005KT 23/17 A3011 RMK A01 T02280168  RH  069%=      5-min Rain = 0
KSC1 111008Z 17005KT 23/17 A3011 RMK A01 T02270168  RH  069%=      5-min Rain = 0
KSC1 111009Z 17005KT 23/17 A3011 RMK A01 T02270168  RH  069%=      5-min Rain = 0
KSC1 111010Z 17005KT 23/17 A3011 RMK A01 T02260168  RH  069%=      5-min Rain = 0
KSC1 111011Z 16004KT 23/17 A3011 RMK A01 T02270168  RH  070%=      5-min Rain = 0
KSC1 111012Z 17005KT 23/17 A3011 RMK A01 T02260168  RH  070%=      5-min Rain = 0
KSC1 111013Z 17006KT 23/17 A3011 RMK A01 T02260168  RH  070%=      5-min Rain = 0
KSC1 111014Z 16004KT 23/17 A3011 RMK A01 T02270169  RH  070%=      5-min Rain = 0
KSC1 111015Z 16005KT 23/17 A3011 RMK A01 T02260169  RH  070%=      5-min Rain = 0
KSC1 111016Z 17005KT 23/17 A3011 RMK A01 T02260169  RH  070%=      5-min Rain = 0
KSC1 111017Z 16005KT 23/17 A3011 RMK A01 T02260169  RH  070%=      5-min Rain = 0
KSC1 111018Z 16005KT 23/17 A3011 RMK A01 T02260169  RH  070%=      5-min Rain = 0
KSC1 111019Z 16005KT 23/17 A3011 RMK A01 T02250169  RH  070%=      5-min Rain = 0
KSC1 111020Z 16004KT 23/17 A3011 RMK A01 T02250170  RH  071%=      5-min Rain = 0
KSC1 111021Z 16005KT 23/17 A3011 RMK A01 T02260170  RH  071%=      5-min Rain = 0
KSC1 111022Z 16005KT 23/17 A3011 RMK A01 T02250170  RH  071%=      5-min Rain = 0
KSC1 111023Z 16004KT 23/17 A3011 RMK A01 T02250170  RH  071%=      5-min Rain = 0
KSC1 111024Z 16005KT 23/17 A3011 RMK A01 T02250170  RH  071%=      5-min Rain = 0
KSC1 111025Z 16005KT 23/17 A3011 RMK A01 T02250170  RH  071%=      5-min Rain = 0
KSC1 111026Z 16005KT 23/17 A3011 RMK A01 T02250171  RH  071%=      5-min Rain = 0
KSC1 111027Z 16006KT 23/17 A3011 RMK A01 T02250171  RH  071%=      5-min Rain = 0
KSC1 111028Z 16005KT 23/17 A3011 RMK A01 T02260171  RH  071%=      5-min Rain = 0
KSC1 111029Z 16006KT 23/17 A3011 RMK A01 T02260171  RH  071%=      5-min Rain = 0
KSC1 111030Z 16005KT 23/17 A3011 RMK A01 T02270171  RH  071%=      5-min Rain = 0
KSC1 111031Z 16006KT 23/17 A3011 RMK A01 T02270172  RH  071%=      5-min Rain = 0
KSC1 111032Z 16005KT 23/17 A3011 RMK A01 T02270171  RH  071%=      5-min Rain = 0
KSC1 111033Z 17005KT 23/17 A3011 RMK A01 T02270172  RH  071%=      5-min Rain = 0
KSC1 111034Z 16005KT 23/17 A3011 RMK A01 T02270172  RH  071%=      5-min Rain = 0
KSC1 111035Z 16005KT 23/17 A3011 RMK A01 T02270172  RH  071%=      5-min Rain = 0
KSC1 111036Z 16006KT 23/17 A3011 RMK A01 T02270172  RH  071%=      5-min Rain = 0
KSC1 111037Z 16006KT 23/17 A3011 RMK A01 T02260172  RH  071%=      5-min Rain = 0
KSC1 111038Z 16005KT 23/17 A3011 RMK A01 T02260172  RH  071%=      5-min Rain = 0
KSC1 111039Z 16005KT 23/17 A3011 RMK A01 T02260172  RH  071%=      5-min Rain = 0
KSC1 111040Z 16005KT 23/17 A3011 RMK A01 T02260173  RH  072%=      5-min Rain = 0
KSC1 111041Z 15004KT 23/17 A3011 RMK A01 T02260173  RH  072%=      5-min Rain = 0
KSC1 111042Z 15004KT 23/17 A3011 RMK A01 T02260173  RH  072%=      5-min Rain = 0
KSC1 111043Z 15004KT 23/17 A3011 RMK A01 T02250173  RH  072%=      5-min Rain = 0
KSC1 111044Z 15005KT 23/17 A3011 RMK A01 T02250173  RH  072%=      5-min Rain = 0
KSC1 111045Z 14005KT 23/17 A3011 RMK A01 T02250173  RH  072%=      5-min Rain = 0
KSC1 111046Z 14005KT 23/17 A3011 RMK A01 T02250174  RH  072%=      5-min Rain = 0
KSC1 111047Z 15004KT 23/17 A3011 RMK A01 T02250173  RH  072%=      5-min Rain = 0
KSC1 111048Z 14004KT 23/17 A3011 RMK A01 T02250173  RH  072%=      5-min Rain = 0
KSC1 111049Z 15004KT 23/17 A3011 RMK A01 T02250173  RH  073%=      5-min Rain = 0
KSC1 111050Z 14004KT 22/17 A3011 RMK A01 T02240173  RH  073%=      5-min Rain = 0
KSC1 111051Z 14004KT 22/17 A3011 RMK A01 T02240174  RH  073%=      5-min Rain = 0
KSC1 111052Z 14005KT 22/17 A3011 RMK A01 T02240174  RH  073%=      5-min Rain = 0
KSC1 111053Z 14004KT 22/17 A3011 RMK A01 T02240174  RH  073%=      5-min Rain = 0
KSC1 111054Z 15004KT 22/17 A3011 RMK A01 T02240174  RH  073%=      5-min Rain = 0
KSC1 111055Z 14003KT 22/17 A3011 RMK A01 T02240174  RH  073%=      5-min Rain = 0
KSC1 111056Z 15004KT 22/17 A3011 RMK A01 T02240174  RH  074%=      5-min Rain = 0
KSC1 111057Z 15004KT 22/18 A3011 RMK A01 T02240175  RH  074%=      5-min Rain = 0
KSC1 111058Z 15004KT 22/18 A3011 RMK A01 T02230175  RH  074%=      5-min Rain = 0
KSC1 111059Z 15004KT 22/18 A3011 RMK A01 T02230175  RH  074%=      5-min Rain = 0
KSC1 111100Z 14004KT 22/18 A3011 RMK A01 T02230175  RH  074%=      5-min Rain = 0
KSC1 111101Z 14003KT 22/18 A3011 RMK A01 T02230175  RH  074%=      5-min Rain = 0
KSC1 111102Z 15004KT 22/18 A3011 RMK A01 T02230175  RH  074%=      5-min Rain = 0
KSC1 111103Z 14003KT 22/18 A3011 RMK A01 T02230175  RH  075%=      5-min Rain = 0
KSC1 111104Z 15003KT 22/18 A3011 RMK A01 T02230176  RH  075%=      5-min Rain = 0
KSC1 111105Z 14003KT 22/18 A3011 RMK A01 T02220176  RH  075%=      5-min Rain = 0
KSC1 111106Z 15003KT 22/18 A3011 RMK A01 T02220176  RH  075%=      5-min Rain = 0
KSC1 111107Z 15003KT 22/18 A3011 RMK A01 T02220176  RH  075%=      5-min Rain = 0
KSC1 111108Z 16003KT 22/18 A3011 RMK A01 T02220176  RH  075%=      5-min Rain = 0
KSC1 111109Z 14003KT 22/18 A3011 RMK A01 T02210176  RH  076%=      5-min Rain = 0
KSC1 111110Z 15003KT 22/18 A3011 RMK A01 T02210176  RH  076%=      5-min Rain = 0
KSC1 111111Z 15003KT 22/18 A3011 RMK A01 T02210176  RH  076%=      5-min Rain = 0
KSC1 111112Z 15003KT 22/18 A3011 RMK A01 T02210176  RH  076%=      5-min Rain = 0
KSC1 111113Z 15003KT 22/18 A3011 RMK A01 T02210177  RH  076%=      5-min Rain = 0
KSC1 111114Z 16003KT 22/18 A3012 RMK A01 T02200176  RH  076%=      5-min Rain = 0
KSC1 111115Z 16003KT 22/18 A3012 RMK A01 T02200176  RH  076%=      5-min Rain = 0
KSC1 111116Z 15004KT 22/18 A3012 RMK A01 T02200177  RH  077%=      5-min Rain = 0
KSC1 111117Z 15004KT 22/18 A3012 RMK A01 T02190177  RH  077%=      5-min Rain = 0
KSC1 111118Z 16004KT 22/18 A3012 RMK A01 T02200178  RH  077%=      5-min Rain = 0
KSC1 111119Z 16004KT 22/18 A3012 RMK A01 T02190178  RH  077%=      5-min Rain = 0
KSC1 111120Z 16003KT 22/18 A3012 RMK A01 T02190178  RH  077%=      5-min Rain = 0
KSC1 111121Z 16003KT 22/18 A3012 RMK A01 T02200178  RH  077%=      5-min Rain = 0
KSC1 111122Z 17004KT 22/18 A3012 RMK A01 T02200179  RH  078%=      5-min Rain = 0
KSC1 111123Z 16004KT 22/18 A3012 RMK A01 T02190179  RH  078%=      5-min Rain = 0
KSC1 111124Z 15004KT 22/18 A3012 RMK A01 T02200179  RH  078%=      5-min Rain = 0
KSC1 111125Z 15004KT 22/18 A3012 RMK A01 T02200179  RH  078%=      5-min Rain = 0
KSC1 111126Z 15004KT 22/18 A3012 RMK A01 T02200179  RH  078%=      5-min Rain = 0
KSC1 111127Z 15003KT 22/18 A3012 RMK A01 T02190179  RH  078%=      5-min Rain = 0
KSC1 111128Z 15004KT 22/18 A3012 RMK A01 T02190180  RH  078%=      5-min Rain = 0
KSC1 111129Z 15004KT 22/18 A3012 RMK A01 T02190180  RH  078%=      5-min Rain = 0
KSC1 111130Z 15004KT 22/18 A3012 RMK A01 T02190180  RH  078%=      5-min Rain = 0
KSC1 111131Z 16004KT 22/18 A3012 RMK A01 T02190180  RH  078%=      5-min Rain = 0
KSC1 111132Z 16004KT 22/18 A3012 RMK A01 T02190180  RH  079%=      5-min Rain = 0
KSC1 111133Z 16004KT 22/18 A3012 RMK A01 T02190180  RH  079%=      5-min Rain = 0
KSC1 111134Z 16003KT 22/18 A3012 RMK A01 T02190181  RH  079%=      5-min Rain = 0
KSC1 111135Z 16003KT 22/18 A3012 RMK A01 T02190180  RH  079%=      5-min Rain = 0
KSC1 111136Z 15003KT 22/18 A3012 RMK A01 T02190181  RH  079%=      5-min Rain = 0
KSC1 111137Z 15003KT 22/18 A3012 RMK A01 T02190181  RH  079%=      5-min Rain = 0
KSC1 111138Z 16003KT 22/18 A3012 RMK A01 T02190181  RH  079%=      5-min Rain = 0
KSC1 111139Z 17003KT 22/18 A3012 RMK A01 T02190181  RH  079%=      5-min Rain = 0
KSC1 111140Z 16004KT 22/18 A3012 RMK A01 T02190182  RH  079%=      5-min Rain = 0
KSC1 111141Z 16004KT 22/18 A3012 RMK A01 T02190182  RH  079%=      5-min Rain = 0
KSC1 111142Z 15004KT 22/18 A3012 RMK A01 T02190182  RH  079%=      5-min Rain = 0
KSC1 111143Z 14003KT 22/18 A3012 RMK A01 T02190182  RH  079%=      5-min Rain = 0
KSC1 111144Z 14003KT 22/18 A3012 RMK A01 T02190182  RH  079%=      5-min Rain = 0
KSC1 111145Z 15004KT 22/18 A3012 RMK A01 T02190182  RH  079%=      5-min Rain = 0
KSC1 111146Z 14003KT 22/18 A3012 RMK A01 T02190182  RH  079%=      5-min Rain = 0
KSC1 111147Z 14004KT 22/18 A3012 RMK A01 T02190183  RH  080%=      5-min Rain = 0
KSC1 111148Z 14003KT 22/18 A3012 RMK A01 T02190182  RH  080%=      5-min Rain = 0
KSC1 111149Z 14003KT 22/18 A3012 RMK A01 T02200183  RH  080%=      5-min Rain = 0
KSC1 111150Z 15004KT 22/18 A3012 RMK A01 T02200183  RH  080%=      5-min Rain = 0
KSC1 111151Z 15003KT 22/18 A3012 RMK A01 T02200183  RH  080%=      5-min Rain = 0
KSC1 111152Z 15002KT 22/18 A3013 RMK A01 T02200183  RH  080%=      5-min Rain = 0
KSC1 111153Z 15004KT 22/18 A3013 RMK A01 T02200183  RH  080%=      5-min Rain = 0
KSC1 111154Z 15004KT 22/18 A3013 RMK A01 T02200183  RH  080%=      5-min Rain = 0
KSC1 111155Z 14003KT 22/18 A3013 RMK A01 T02200184  RH  080%=      5-min Rain = 0
KSC1 111156Z 15003KT 22/18 A3013 RMK A01 T02200184  RH  080%=      5-min Rain = 0
KSC1 111157Z 14002KT 22/18 A3013 RMK A01 T02200184  RH  080%=      5-min Rain = 0
KSC1 111158Z 15003KT 22/18 A3013 RMK A01 T02210184  RH  080%=      5-min Rain = 0
KSC1 111159Z 13001KT 22/18 A3013 RMK A01 T02210184  RH  080%=      5-min Rain = 0
KSC1 111200Z 13002KT 22/18 A3013 RMK A01 T02210184  RH  080%=      5-min Rain = 0
KSC1 111201Z 13000KT 22/18 A3013 RMK A01 T02210184  RH  080%=      5-min Rain = 0
KSC1 111202Z 13001KT 22/18 A3013 RMK A01 T02200184  RH  080%=      5-min Rain = 0
KSC1 111203Z 16002KT 22/18 A3013 RMK A01 T02200184  RH  080%=      5-min Rain = 0
KSC1 111204Z 16002KT 22/19 A3013 RMK A01 T02200185  RH  080%=      5-min Rain = 0
KSC1 111205Z 17001KT 22/19 A3013 RMK A01 T02200185  RH  080%=      5-min Rain = 0
KSC1 111206Z 15000KT 22/19 A3013 RMK A01 T02200185  RH  080%=      5-min Rain = 0
KSC1 111207Z 00000KT 22/18 A3013 RMK A01 T02200184  RH  080%=      5-min Rain = 0
KSC1 111208Z 13001KT 22/18 A3013 RMK A01 T02210184  RH  080%=      5-min Rain = 0
KSC1 111209Z 13000KT 22/18 A3013 RMK A01 T02200183  RH  079%=      5-min Rain = 0
KSC1 111210Z 09001KT 22/18 A3013 RMK A01 T02190182  RH  079%=      5-min Rain = 0
KSC1 111211Z 11002KT 22/18 A3013 RMK A01 T02170182  RH  080%=      5-min Rain = 0
KSC1 111212Z 15003KT 22/18 A3013 RMK A01 T02160184  RH  082%=      5-min Rain = 0
KSC1 111213Z 07001KT 22/18 A3013 RMK A01 T02160184  RH  082%=      5-min Rain = 0
KSC1 111214Z 09002KT 22/18 A3013 RMK A01 T02160184  RH  082%=      5-min Rain = 0
KSC1 111215Z 07002KT 22/18 A3013 RMK A01 T02160183  RH  082%=      5-min Rain = 0
KSC1 111216Z 09001KT 22/18 A3013 RMK A01 T02150182  RH  081%=      5-min Rain = 0
KSC1 111217Z 07002KT 22/18 A3013 RMK A01 T02150182  RH  082%=      5-min Rain = 0
KSC1 111218Z 08002KT 21/18 A3013 RMK A01 T02140183  RH  082%=      5-min Rain = 0
KSC1 111219Z 08001KT 21/18 A3013 RMK A01 T02140183  RH  082%=      5-min Rain = 0
KSC1 111220Z 12001KT 21/18 A3013 RMK A01 T02140183  RH  082%=      5-min Rain = 0
KSC1 111221Z 12000KT 21/18 A3013 RMK A01 T02140183  RH  082%=      5-min Rain = 0
KSC1 111222Z 12000KT 22/18 A3013 RMK A01 T02150183  RH  082%=      5-min Rain = 0
KSC1 111223Z 13002KT 22/18 A3013 RMK A01 T02150184  RH  082%=      5-min Rain = 0
KSC1 111224Z 14002KT 22/18 A3013 RMK A01 T02160184  RH  082%=      5-min Rain = 0
KSC1 111225Z 15003KT 22/19 A3013 RMK A01 T02170186  RH  082%=      5-min Rain = 0
KSC1 111226Z 12002KT 22/19 A3013 RMK A01 T02190188  RH  082%=      5-min Rain = 0
KSC1 111227Z 13002KT 22/19 A3013 RMK A01 T02210188  RH  082%=      5-min Rain = 0
KSC1 111228Z 14003KT 22/19 A3013 RMK A01 T02230189  RH  081%=      5-min Rain = 0
KSC1 111229Z 15004KT 22/19 A3013 RMK A01 T02240188  RH  080%=      5-min Rain = 0
KSC1 111230Z 12003KT 23/19 A3013 RMK A01 T02250188  RH  080%=      5-min Rain = 0
KSC1 111231Z 14002KT 23/19 A3013 RMK A01 T02260189  RH  079%=      5-min Rain = 0
KSC1 111232Z 14002KT 23/19 A3013 RMK A01 T02270188  RH  079%=      5-min Rain = 0
KSC1 111233Z 13003KT 23/19 A3013 RMK A01 T02280189  RH  078%=      5-min Rain = 0
KSC1 111234Z 14002KT 23/19 A3013 RMK A01 T02280188  RH  078%=      5-min Rain = 0
KSC1 111235Z 14003KT 23/19 A3013 RMK A01 T02290188  RH  078%=      5-min Rain = 0
KSC1 111236Z 14002KT 23/19 A3013 RMK A01 T02290188  RH  078%=      5-min Rain = 0
KSC1 111237Z 14001KT 23/19 A3013 RMK A01 T02300189  RH  077%=      5-min Rain = 0
KSC1 111238Z 14003KT 23/19 A3013 RMK A01 T02310189  RH  077%=      5-min Rain = 0
KSC1 111239Z 14003KT 23/19 A3013 RMK A01 T02310189  RH  077%=      5-min Rain = 0
KSC1 111240Z 15003KT 23/19 A3013 RMK A01 T02310188  RH  077%=      5-min Rain = 0
KSC1 111241Z 15004KT 23/19 A3013 RMK A01 T02320189  RH  077%=      5-min Rain = 0
KSC1 111242Z 14002KT 23/19 A3013 RMK A01 T02330189  RH  076%=      5-min Rain = 0
KSC1 111243Z 15001KT 23/19 A3013 RMK A01 T02330189  RH  076%=      5-min Rain = 0
KSC1 111244Z 13003KT 23/19 A3013 RMK A01 T02330189  RH  076%=      5-min Rain = 0
KSC1 111245Z 15002KT 23/19 A3013 RMK A01 T02340189  RH  076%=      5-min Rain = 0
KSC1 111246Z 15002KT 23/19 A3013 RMK A01 T02340190  RH  076%=      5-min Rain = 0
KSC1 111247Z 13001KT 23/19 A3014 RMK A01 T02340189  RH  076%=      5-min Rain = 0
KSC1 111248Z 14003KT 23/19 A3014 RMK A01 T02340190  RH  076%=      5-min Rain = 0
KSC1 111249Z 15004KT 24/19 A3014 RMK A01 T02350189  RH  076%=      5-min Rain = 0
KSC1 111250Z 16003KT 24/19 A3014 RMK A01 T02350189  RH  076%=      5-min Rain = 0
KSC1 111251Z 17003KT 24/19 A3014 RMK A01 T02350190  RH  076%=      5-min Rain = 0
KSC1 111252Z 13002KT 24/19 A3014 RMK A01 T02350190  RH  076%=      5-min Rain = 0
KSC1 111253Z 14002KT 24/19 A3014 RMK A01 T02350190  RH  076%=      5-min Rain = 0
KSC1 111254Z 15003KT 24/19 A3014 RMK A01 T02350190  RH  076%=      5-min Rain = 0
KSC1 111255Z 15002KT 24/19 A3014 RMK A01 T02360190  RH  076%=      5-min Rain = 0
KSC1 111256Z 14002KT 24/19 A3014 RMK A01 T02360190  RH  076%=      5-min Rain = 0
KSC1 111257Z 14003KT 24/19 A3014 RMK A01 T02360190  RH  075%=      5-min Rain = 0
KSC1 111258Z 14003KT 24/19 A3014 RMK A01 T02360190  RH  075%=      5-min Rain = 0
KSC1 111259Z 14003KT 24/19 A3014 RMK A01 T02370190  RH  075%=      5-min Rain = 0
KSC1 111300Z 13004KT 24/19 A3014 RMK A01 T02360191  RH  075%=      5-min Rain = 0
KSC1 111301Z 15005KT 24/19 A3014 RMK A01 T02370191  RH  075%=      5-min Rain = 0
KSC1 111302Z 13003KT 24/19 A3014 RMK A01 T02370191  RH  075%=      5-min Rain = 0
KSC1 111303Z 14004KT 24/19 A3014 RMK A01 T02380192  RH  075%=      5-min Rain = 0
KSC1 111304Z 13004KT 24/19 A3014 RMK A01 T02390191  RH  075%=      5-min Rain = 0
KSC1 111305Z 12004KT 24/19 A3014 RMK A01 T02390191  RH  075%=      5-min Rain = 0
KSC1 111306Z 13004KT 24/19 A3014 RMK A01 T02390191  RH  074%=      5-min Rain = 0
KSC1 111307Z 13003KT 24/19 A3014 RMK A01 T02400191  RH  074%=      5-min Rain = 0
KSC1 111308Z 13006KT 24/19 A3014 RMK A01 T02400191  RH  074%=      5-min Rain = 0
KSC1 111309Z 14006KT 24/19 A3014 RMK A01 T02400191  RH  074%=      5-min Rain = 0
KSC1 111310Z 15005KT 24/19 A3014 RMK A01 T02400191  RH  074%=      5-min Rain = 0
KSC1 111311Z 15005KT 24/19 A3014 RMK A01 T02400191  RH  074%=      5-min Rain = 0
KSC1 111312Z 16004KT 24/19 A3014 RMK A01 T02400192  RH  075%=      5-min Rain = 0
KSC1 111313Z 16005KT 24/19 A3014 RMK A01 T02400193  RH  075%=      5-min Rain = 0
KSC1 111314Z 15005KT 24/19 A3014 RMK A01 T02410193  RH  074%=      5-min Rain = 0
KSC1 111315Z 14006KT 24/19 A3014 RMK A01 T02420192  RH  074%=      5-min Rain = 0
KSC1 111316Z 15006KT 24/19 A3014 RMK A01 T02420192  RH  074%=      5-min Rain = 0
KSC1 111317Z 13004KT 24/19 A3014 RMK A01 T02420193  RH  074%=      5-min Rain = 0
KSC1 111318Z 15007KT 24/19 A3014 RMK A01 T02430193  RH  074%=      5-min Rain = 0
KSC1 111319Z 16006KT 24/19 A3014 RMK A01 T02440193  RH  073%=      5-min Rain = 0
KSC1 111320Z 16007KT 24/19 A3014 RMK A01 T02440193  RH  073%=      5-min Rain = 0
KSC1 111321Z 15005KT 24/19 A3014 RMK A01 T02440193  RH  073%=      5-min Rain = 0
KSC1 111322Z 16007KT 24/19 A3014 RMK A01 T02430193  RH  074%=      5-min Rain = 0
KSC1 111323Z 15005KT 24/19 A3014 RMK A01 T02430193  RH  074%=      5-min Rain = 0
KSC1 111324Z 16007KT 24/19 A3014 RMK A01 T02430193  RH  073%=      5-min Rain = 0
KSC1 111325Z 16006KT 24/19 A3014 RMK A01 T02430193  RH  073%=      5-min Rain = 0
KSC1 111326Z 15007KT 24/19 A3015 RMK A01 T02440194  RH  073%=      5-min Rain = 0
KSC1 111327Z 16007KT 25/19 A3015 RMK A01 T02450193  RH  073%=      5-min Rain = 0
KSC1 111328Z 16007KT 25/19 A3015 RMK A01 T02450193  RH  073%=      5-min Rain = 0
KSC1 111329Z 15005KT 25/19 A3015 RMK A01 T02450194  RH  073%=      5-min Rain = 0
KSC1 111330Z 14006KT 25/19 A3015 RMK A01 T02460194  RH  073%=      5-min Rain = 0
KSC1 111331Z 15008KT 25/19 A3015 RMK A01 T02470194  RH  072%=      5-min Rain = 0
KSC1 111332Z 15007KT 25/19 A3015 RMK A01 T02470193  RH  072%=      5-min Rain = 0
KSC1 111333Z 14004KT 25/19 A3015 RMK A01 T02470193  RH  072%=      5-min Rain = 0
KSC1 111334Z 15007KT 25/19 A3015 RMK A01 T02470194  RH  072%=      5-min Rain = 0
KSC1 111335Z 14006KT 25/19 A3015 RMK A01 T02480194  RH  072%=      5-min Rain = 0
KSC1 111336Z 15006KT 25/19 A3015 RMK A01 T02480194  RH  072%=      5-min Rain = 0
KSC1 111337Z 15007KT 25/19 A3015 RMK A01 T02490194  RH  072%=      5-min Rain = 0
KSC1 111338Z 16007KT 25/19 A3015 RMK A01 T02490194  RH  072%=      5-min Rain = 0
KSC1 111339Z 15007KT 25/20 A3015 RMK A01 T02490195  RH  072%=      5-min Rain = 0
KSC1 111340Z 17008KT 25/19 A3015 RMK A01 T02490194  RH  072%=      5-min Rain = 0
KSC1 111341Z 16005KT 25/20 A3015 RMK A01 T02500196  RH  072%=      5-min Rain = 0
KSC1 111342Z 16009KT 25/20 A3015 RMK A01 T02510195  RH  071%=      5-min Rain = 0
KSC1 111343Z 16009KT 25/19 A3015 RMK A01 T02510194  RH  071%=      5-min Rain = 0
KSC1 111344Z 16008KT 25/20 A3015 RMK A01 T02510195  RH  071%=      5-min Rain = 0
KSC1 111345Z 16005KT 25/20 A3015 RMK A01 T02510195  RH  071%=      5-min Rain = 0
KSC1 111346Z 16005KT 25/20 A3015 RMK A01 T02520196  RH  071%=      5-min Rain = 0
KSC1 111347Z 16008KT 25/20 A3015 RMK A01 T02540195  RH  070%=      5-min Rain = 0
KSC1 111348Z 16009KT 26/19 A3015 RMK A01 T02550194  RH  069%=      5-min Rain = 0
KSC1 111349Z 17010KT 26/20 A3015 RMK A01 T02550195  RH  070%=      5-min Rain = 0
KSC1 111350Z 17008KT 25/20 A3014 RMK A01 T02540195  RH  069%=      5-min Rain = 0
KSC1 111351Z 17006KT 25/20 A3014 RMK A01 T02540196  RH  070%=      5-min Rain = 0
KSC1 111352Z 16007KT 26/20 A3014 RMK A01 T02550196  RH  070%=      5-min Rain = 0
KSC1 111353Z 16010KT 26/20 A3014 RMK A01 T02560195  RH  069%=      5-min Rain = 0
KSC1 111354Z 16012KT 26/19 A3014 RMK A01 T02570194  RH  068%=      5-min Rain = 0
KSC1 111355Z 17010KT 26/19 A3014 RMK A01 T02560193  RH  068%=      5-min Rain = 0
KSC1 111356Z 17009G15KT 26/19 A3014 RMK A01 T02550194  RH  069%=      5-min Rain = 0
KSC1 111357Z 18011KT 26/19 A3014 RMK A01 T02560194  RH  068%=      5-min Rain = 0
KSC1 111358Z 18010KT 26/19 A3015 RMK A01 T02560193  RH  068%=      5-min Rain = 0
KSC1 111359Z 18011KT 26/19 A3015 RMK A01 T02560194  RH  068%=      5-min Rain = 0
KSC1 111400Z 18013KT 26/19 A3014 RMK A01 T02570193  RH  068%=      5-min Rain = 0
KSC1 111401Z 18013KT 26/19 A3014 RMK A01 T02570193  RH  068%=      5-min Rain = 0
KSC1 111402Z 18011KT 26/19 A3015 RMK A01 T02560193  RH  068%=      5-min Rain = 0
KSC1 111403Z 18010KT 26/19 A3015 RMK A01 T02570193  RH  068%=      5-min Rain = 0
KSC1 111404Z 17010KT 26/19 A3015 RMK A01 T02580193  RH  068%=      5-min Rain = 0
KSC1 111405Z 17013KT 26/19 A3015 RMK A01 T02590193  RH  067%=      5-min Rain = 0
KSC1 111406Z 17011KT 26/19 A3015 RMK A01 T02590193  RH  067%=      5-min Rain = 0
KSC1 111407Z 18012KT 26/19 A3015 RMK A01 T02590193  RH  067%=      5-min Rain = 0
KSC1 111408Z 18012KT 26/19 A3015 RMK A01 T02580192  RH  067%=      5-min Rain = 0
KSC1 111409Z 18011KT 26/19 A3015 RMK A01 T02580192  RH  067%=      5-min Rain = 0
KSC1 111410Z 18012KT 26/19 A3015 RMK A01 T02590192  RH  067%=      5-min Rain = 0
KSC1 111411Z 18011KT 26/19 A3015 RMK A01 T02590193  RH  067%=      5-min Rain = 0
KSC1 111412Z 17012KT 26/19 A3015 RMK A01 T02600192  RH  066%=      5-min Rain = 0
KSC1 111413Z 18010KT 26/19 A3015 RMK A01 T02600192  RH  066%=      5-min Rain = 0
KSC1 111414Z 17011KT 26/19 A3015 RMK A01 T02610192  RH  066%=      5-min Rain = 0
KSC1 111415Z 17012KT 26/19 A3015 RMK A01 T02620192  RH  065%=      5-min Rain = 0
KSC1 111416Z 17011KT 26/19 A3015 RMK A01 T02620192  RH  065%=      5-min Rain = 0
KSC1 111417Z 17011KT 26/19 A3015 RMK A01 T02620193  RH  066%=      5-min Rain = 0
KSC1 111418Z 17012KT 26/19 A3015 RMK A01 T02620193  RH  066%=      5-min Rain = 0
KSC1 111419Z 17014KT 26/19 A3014 RMK A01 T02630192  RH  065%=      5-min Rain = 0
KSC1 111420Z 17012KT 26/19 A3014 RMK A01 T02620191  RH  065%=      5-min Rain = 0
KSC1 111421Z 18011KT 26/19 A3014 RMK A01 T02620191  RH  065%=      5-min Rain = 0
KSC1 111422Z 18010KT 26/19 A3014 RMK A01 T02620192  RH  065%=      5-min Rain = 0
KSC1 111423Z 18010KT 26/19 A3015 RMK A01 T02640194  RH  065%=      5-min Rain = 0
KSC1 111424Z 18012KT 27/19 A3015 RMK A01 T02660192  RH  064%=      5-min Rain = 0
KSC1 111425Z 18010KT 27/19 A3015 RMK A01 T02650192  RH  064%=      5-min Rain = 0
KSC1 111426Z 18009KT 27/19 A3015 RMK A01 T02650193  RH  064%=      5-min Rain = 0
KSC1 111427Z 18012KT 27/19 A3015 RMK A01 T02660192  RH  064%=      5-min Rain = 0
KSC1 111428Z 18011KT 27/19 A3015 RMK A01 T02660192  RH  064%=      5-min Rain = 0
KSC1 111429Z 17012KT 27/19 A3015 RMK A01 T02660193  RH  064%=      5-min Rain = 0
KSC1 111430Z 18012KT 27/19 A3015 RMK A01 T02660192  RH  064%=      5-min Rain = 0
KSC1 111431Z 19012KT 27/19 A3015 RMK A01 T02650192  RH  064%=      5-min Rain = 0
KSC1 111432Z 19012KT 27/19 A3015 RMK A01 T02660192  RH  064%=      5-min Rain = 0
KSC1 111433Z 19011KT 27/19 A3015 RMK A01 T02650192  RH  064%=      5-min Rain = 0
KSC1 111434Z 17011KT 27/19 A3015 RMK A01 T02660194  RH  064%=      5-min Rain = 0
KSC1 111435Z 17010G15KT 27/19 A3015 RMK A01 T02680193  RH  064%=      5-min Rain = 0
KSC1 111436Z 16010KT 27/19 A3015 RMK A01 T02680193  RH  063%=      5-min Rain = 0
KSC1 111437Z 18010KT 27/19 A3015 RMK A01 T02700193  RH  063%=      5-min Rain = 0
KSC1 111438Z 17012KT 27/19 A3015 RMK A01 T02710192  RH  062%=      5-min Rain = 0
KSC1 111439Z 17013KT 27/19 A3015 RMK A01 T02710191  RH  062%=      5-min Rain = 0
KSC1 111440Z 17013KT 27/19 A3015 RMK A01 T02700191  RH  062%=      5-min Rain = 0
KSC1 111441Z 18013KT 27/19 A3015 RMK A01 T02690190  RH  062%=      5-min Rain = 0
KSC1 111442Z 17011KT 27/19 A3015 RMK A01 T02690190  RH  062%=      5-min Rain = 0
KSC1 111443Z 18012KT 27/19 A3015 RMK A01 T02690191  RH  062%=      5-min Rain = 0
KSC1 111444Z 18011KT 27/19 A3015 RMK A01 T02700190  RH  062%=      5-min Rain = 0
KSC1 111445Z 18009KT 27/19 A3015 RMK A01 T02710191  RH  062%=      5-min Rain = 0
KSC1 111446Z 19011KT 27/19 A3015 RMK A01 T02720192  RH  062%=      5-min Rain = 0
KSC1 111447Z 18011KT 27/19 A3015 RMK A01 T02720191  RH  061%=      5-min Rain = 0
KSC1 111448Z 17008KT 27/19 A3015 RMK A01 T02720191  RH  061%=      5-min Rain = 0
KSC1 111449Z 18008KT 28/19 A3015 RMK A01 T02750194  RH  061%=      5-min Rain = 0
KSC1 111450Z 19010KT 28/19 A3015 RMK A01 T02760191  RH  060%=      5-min Rain = 0
KSC1 111451Z 17008KT 28/19 A3015 RMK A01 T02750193  RH  061%=      5-min Rain = 0
KSC1 111452Z 18008KT 28/19 A3015 RMK A01 T02760193  RH  061%=      5-min Rain = 0
KSC1 111453Z 19010KT 28/19 A3015 RMK A01 T02760192  RH  060%=      5-min Rain = 0
KSC1 111454Z 17008KT 28/19 A3015 RMK A01 T02760193  RH  060%=      5-min Rain = 0
KSC1 111455Z 16011KT 28/19 A3015 RMK A01 T02770193  RH  060%=      5-min Rain = 0
KSC1 111456Z 16009KT 28/19 A3015 RMK A01 T02780192  RH  060%=      5-min Rain = 0
KSC1 111457Z 15010KT 28/19 A3015 RMK A01 T02790192  RH  059%=      5-min Rain = 0
KSC1 111458Z 16010KT 28/19 A3015 RMK A01 T02790191  RH  059%=      5-min Rain = 0
KSC1 111459Z 18009KT 28/19 A3015 RMK A01 T02790191  RH  059%=      5-min Rain = 0
KSC1 111500Z 18009KT 28/19 A3015 RMK A01 T02780192  RH  059%=      5-min Rain = 0
KSC1 111501Z 17009KT 28/19 A3015 RMK A01 T02780193  RH  060%=      5-min Rain = 0
KSC1 111502Z 17011KT 28/19 A3015 RMK A01 T02800192  RH  059%=      5-min Rain = 0
KSC1 111503Z 17011KT 28/19 A3015 RMK A01 T02800191  RH  058%=      5-min Rain = 0
KSC1 111504Z 17009KT 28/19 A3015 RMK A01 T02800191  RH  058%=      5-min Rain = 0
KSC1 111505Z 17009KT 28/19 A3015 RMK A01 T02780190  RH  059%=      5-min Rain = 0
KSC1 111506Z 16008KT 28/19 A3015 RMK A01 T02780191  RH  059%=      5-min Rain = 0
KSC1 111507Z 14009KT 28/19 A3015 RMK A01 T02790191  RH  059%=      5-min Rain = 0
KSC1 111508Z 15006KT 28/19 A3015 RMK A01 T02810191  RH  058%=      5-min Rain = 0
KSC1 111509Z 17007KT 28/19 A3015 RMK A01 T02820193  RH  058%=      5-min Rain = 0
KSC1 111510Z 17008KT 28/19 A3015 RMK A01 T02840192  RH  058%=      5-min Rain = 0
KSC1 111511Z 18007KT 29/19 A3015 RMK A01 T02850190  RH  057%=      5-min Rain = 0
KSC1 111512Z 17008G13KT 28/19 A3015 RMK A01 T02840193  RH  058%=      5-min Rain = 0
KSC1 111513Z 17011KT 29/19 A3015 RMK A01 T02850190  RH  056%=      5-min Rain = 0
KSC1 111514Z 16009KT 28/19 A3015 RMK A01 T02830188  RH  056%=      5-min Rain = 0
KSC1 111515Z 18010KT 28/19 A3015 RMK A01 T02820189  RH  057%=      5-min Rain = 0
KSC1 111516Z 18011KT 28/19 A3015 RMK A01 T02820189  RH  057%=      5-min Rain = 0
KSC1 111517Z 17008KT 28/19 A3015 RMK A01 T02820189  RH  057%=      5-min Rain = 0
KSC1 111518Z 19006KT 28/19 A3015 RMK A01 T02820190  RH  057%=      5-min Rain = 0
KSC1 111519Z 17006KT 29/19 A3015 RMK A01 T02850194  RH  058%=      5-min Rain = 0
KSC1 111520Z 15007KT 29/19 A3015 RMK A01 T02880192  RH  056%=      5-min Rain = 0
KSC1 111521Z 18008KT 29/19 A3014 RMK A01 T02900192  RH  055%=      5-min Rain = 0
KSC1 111522Z 16011KT 29/19 A3014 RMK A01 T02920191  RH  055%=      5-min Rain = 0
KSC1 111523Z 15010KT 29/19 A3014 RMK A01 T02910189  RH  054%=      5-min Rain = 0
KSC1 111524Z 15012KT 29/19 A3014 RMK A01 T02900189  RH  054%=      5-min Rain = 0
KSC1 111525Z 17010KT 29/19 A3014 RMK A01 T02900190  RH  055%=      5-min Rain = 0
KSC1 111526Z 17010KT 29/19 A3014 RMK A01 T02890187  RH  054%=      5-min Rain = 0
KSC1 111527Z 16008KT 29/19 A3014 RMK A01 T02870187  RH  055%=      5-min Rain = 0
KSC1 111528Z 15009G15KT 29/19 A3014 RMK A01 T02870190  RH  056%=      5-min Rain = 0
KSC1 111529Z 16013KT 29/19 A3014 RMK A01 T02890186  RH  054%=      5-min Rain = 0
KSC1 111530Z 16013KT 29/19 A3014 RMK A01 T02890186  RH  054%=      5-min Rain = 0
KSC1 111531Z 16011KT 29/18 A3014 RMK A01 T02890184  RH  053%=      5-min Rain = 0
KSC1 111532Z 17013KT 29/18 A3014 RMK A01 T02880184  RH  053%=      5-min Rain = 0
KSC1 111533Z 18011KT 29/19 A3014 RMK A01 T02890185  RH  054%=      5-min Rain = 0
KSC1 111534Z 17011KT 29/19 A3014 RMK A01 T02900186  RH  054%=      5-min Rain = 0
KSC1 111535Z 16010KT 29/19 A3014 RMK A01 T02910186  RH  053%=      5-min Rain = 0
KSC1 111536Z 16009KT 29/19 A3014 RMK A01 T02910186  RH  053%=      5-min Rain = 0
KSC1 111537Z 17012KT 29/19 A3014 RMK A01 T02910186  RH  053%=      5-min Rain = 0
KSC1 111538Z 17012KT 29/19 A3014 RMK A01 T02900185  RH  053%=      5-min Rain = 0
KSC1 111539Z 17012G17KT 29/18 A3014 RMK A01 T02890183  RH  053%=      5-min Rain = 0
KSC1 111540Z 18009KT 29/19 A3014 RMK A01 T02900185  RH  053%=      5-min Rain = 0
KSC1 111541Z 19009KT 29/19 A3014 RMK A01 T02920186  RH  053%=      5-min Rain = 0
KSC1 111542Z 17011KT 29/19 A3014 RMK A01 T02930186  RH  052%=      5-min Rain = 0
KSC1 111543Z 17010KT 29/18 A3014 RMK A01 T02930184  RH  052%=      5-min Rain = 0
KSC1 111544Z 17009KT 29/18 A3014 RMK A01 T02930184  RH  052%=      5-min Rain = 0
KSC1 111545Z 16011KT 29/18 A3014 RMK A01 T02930184  RH  052%=      5-min Rain = 0
KSC1 111546Z 17011KT 29/18 A3014 RMK A01 T02940184  RH  052%=      5-min Rain = 0
KSC1 111547Z 16011KT 29/18 A3014 RMK A01 T02940184  RH  052%=      5-min Rain = 0
KSC1 111548Z 15009KT 29/18 A3014 RMK A01 T02930184  RH  052%=      5-min Rain = 0
KSC1 111549Z 16010KT 29/18 A3014 RMK A01 T02930183  RH  052%=      5-min Rain = 0
KSC1 111550Z 16009KT 29/18 A3014 RMK A01 T02930184  RH  052%=      5-min Rain = 0
KSC1 111551Z 18010KT 29/19 A3014 RMK A01 T02940185  RH  052%=      5-min Rain = 0
KSC1 111552Z 18009KT 30/19 A3014 RMK A01 T02960187  RH  052%=      5-min Rain = 0
KSC1 111553Z 18013KT 30/18 A3014 RMK A01 T02980184  RH  050%=      5-min Rain = 0
KSC1 111554Z 18011KT 30/18 A3014 RMK A01 T02970181  RH  050%=      5-min Rain = 0
KSC1 111555Z 18008KT 30/18 A3014 RMK A01 T02960183  RH  050%=      5-min Rain = 0
KSC1 111556Z 18012KT 30/18 A3014 RMK A01 T02960182  RH  050%=      5-min Rain = 0
KSC1 111557Z 19008KT 30/18 A3014 RMK A01 T02960183  RH  051%=      5-min Rain = 0
KSC1 111558Z 18010KT 30/18 A3014 RMK A01 T02950183  RH  051%=      5-min Rain = 0
KSC1 111559Z 19011KT 30/18 A3014 RMK A01 T02950181  RH  050%=      5-min Rain = 0
KSC1 111600Z 18012KT 30/18 A3014 RMK A01 T02950183  RH  051%=      5-min Rain = 0
KSC1 111601Z 19011KT 30/18 A3014 RMK A01 T02950183  RH  051%=      5-min Rain = 0
KSC1 111602Z 18011KT 30/18 A3014 RMK A01 T02950182  RH  051%=      5-min Rain = 0
KSC1 111603Z 18010KT 30/18 A3014 RMK A01 T02950183  RH  051%=      5-min Rain = 0
KSC1 111604Z 16006KT 30/19 A3014 RMK A01 T02960185  RH  051%=      5-min Rain = 0
KSC1 111605Z 17006KT 30/19 A3014 RMK A01 T03000188  RH  051%=      5-min Rain = 0
KSC1 111606Z 17004KT 30/19 A3015 RMK A01 T03020186  RH  050%=      5-min Rain = 0
KSC1 111607Z 16008KT 30/19 A3015 RMK A01 T03030189  RH  050%=      5-min Rain = 0
KSC1 111608Z 16011KT 31/18 A3015 RMK A01 T03050184  RH  049%=      5-min Rain = 0
KSC1 111609Z 14011KT 30/18 A3015 RMK A01 T03040182  RH  048%=      5-min Rain = 0
KSC1 111610Z 14007KT 30/18 A3015 RMK A01 T03030182  RH  049%=      5-min Rain = 0
KSC1 111611Z 13009KT 30/18 A3015 RMK A01 T03030181  RH  048%=      5-min Rain = 0
KSC1 111612Z 14010KT 30/18 A3015 RMK A01 T03030180  RH  048%=      5-min Rain = 0
KSC1 111613Z 15010KT 30/18 A3015 RMK A01 T03030179  RH  047%=      5-min Rain = 0
KSC1 111614Z 17008KT 30/18 A3015 RMK A01 T03010181  RH  049%=      5-min Rain = 0
KSC1 111615Z 17008KT 30/18 A3015 RMK A01 T03030183  RH  049%=      5-min Rain = 0
KSC1 111616Z 18008KT 31/18 A3015 RMK A01 T03050182  RH  048%=      5-min Rain = 0
KSC1 111617Z 16011G16KT 31/18 A3015 RMK A01 T03060182  RH  048%=      5-min Rain = 0
KSC1 111618Z 16010KT 31/18 A3015 RMK A01 T03050182  RH  048%=      5-min Rain = 0
KSC1 111619Z 17009KT 31/18 A3015 RMK A01 T03050182  RH  048%=      5-min Rain = 0
KSC1 111620Z 19005KT 30/18 A3015 RMK A01 T03030181  RH  048%=      5-min Rain = 0
KSC1 111621Z 19006KT 30/18 A3015 RMK A01 T03020181  RH  048%=      5-min Rain = 0
KSC1 111622Z 16008KT 30/18 A3015 RMK A01 T03020181  RH  048%=      5-min Rain = 0
KSC1 111623Z 16009KT 30/18 A3015 RMK A01 T03030180  RH  048%=      5-min Rain = 0
KSC1 111624Z 19008KT 30/18 A3015 RMK A01 T03040180  RH  047%=      5-min Rain = 0
KSC1 111625Z 19007G12KT 31/18 A3015 RMK A01 T03050182  RH  048%=      5-min Rain = 0
KSC1 111626Z 18010KT 31/18 A3015 RMK A01 T03070178  RH  046%=      5-min Rain = 0
KSC1 111627Z 20007KT 31/18 A3014 RMK A01 T03050179  RH  047%=      5-min Rain = 0
KSC1 111628Z 19009KT 30/18 A3014 RMK A01 T03040179  RH  047%=      5-min Rain = 0
KSC1 111629Z 19010KT 30/18 A3014 RMK A01 T03040179  RH  047%=      5-min Rain = 0
KSC1 111630Z 18008KT 30/18 A3014 RMK A01 T03040180  RH  047%=      5-min Rain = 0
KSC1 111631Z 13005KT 31/18 A3014 RMK A01 T03050181  RH  048%=      5-min Rain = 0
KSC1 111632Z 13005KT 31/18 A3014 RMK A01 T03060179  RH  047%=      5-min Rain = 0
KSC1 111633Z 14006KT 31/18 A3014 RMK A01 T03090182  RH  047%=      5-min Rain = 0
KSC1 111634Z 16008KT 31/18 A3014 RMK A01 T03120183  RH  046%=      5-min Rain = 0
KSC1 111635Z 17006KT 31/18 A3014 RMK A01 T03140181  RH  045%=      5-min Rain = 0
KSC1 111636Z 16008KT 31/18 A3014 RMK A01 T03140180  RH  045%=      5-min Rain = 0
KSC1 111637Z 16007KT 31/18 A3014 RMK A01 T03120177  RH  044%=      5-min Rain = 0
KSC1 111638Z 16010KT 31/18 A3014 RMK A01 T03090178  RH  045%=      5-min Rain = 0
KSC1 111639Z 14008KT 31/18 A3014 RMK A01 T03090179  RH  046%=      5-min Rain = 0
KSC1 111640Z 15008KT 31/18 A3014 RMK A01 T03080178  RH  046%=      5-min Rain = 0
KSC1 111641Z 15009KT 31/18 A3014 RMK A01 T03060178  RH  046%=      5-min Rain = 0
KSC1 111642Z 15008KT 31/18 A3014 RMK A01 T03050179  RH  047%=      5-min Rain = 0
KSC1 111643Z 15006KT 31/18 A3014 RMK A01 T03050181  RH  047%=      5-min Rain = 0
KSC1 111644Z 16005KT 31/19 A3014 RMK A01 T03080185  RH  048%=      5-min Rain = 0
KSC1 111645Z 18008KT 31/18 A3014 RMK A01 T03120183  RH  046%=      5-min Rain = 0
KSC1 111646Z 19008KT 31/18 A3014 RMK A01 T03130181  RH  045%=      5-min Rain = 0
KSC1 111647Z 19008KT 31/18 A3014 RMK A01 T03120179  RH  045%=      5-min Rain = 0
KSC1 111648Z 18005KT 31/18 A3014 RMK A01 T03100177  RH  045%=      5-min Rain = 0
KSC1 111649Z 16004KT 31/18 A3014 RMK A01 T03080179  RH  046%=      5-min Rain = 0
KSC1 111650Z 15006KT 31/18 A3014 RMK A01 T03100183  RH  047%=      5-min Rain = 0
KSC1 111651Z 17009KT 31/18 A3014 RMK A01 T03140181  RH  045%=      5-min Rain = 0
KSC1 111652Z 15008KT 31/18 A3014 RMK A01 T03130179  RH  045%=      5-min Rain = 0
KSC1 111653Z 14008KT 31/18 A3014 RMK A01 T03120178  RH  045%=      5-min Rain = 0
KSC1 111654Z 18007KT 31/18 A3014 RMK A01 T03120180  RH  045%=      5-min Rain = 0
KSC1 111655Z 16005KT 31/18 A3014 RMK A01 T03110177  RH  045%=      5-min Rain = 0
KSC1 111656Z 15006KT 31/18 A3014 RMK A01 T03100180  RH  046%=      5-min Rain = 0
KSC1 111657Z 13006KT 31/18 A3014 RMK A01 T03120180  RH  045%=      5-min Rain = 0
KSC1 111658Z 15005KT 32/18 A3014 RMK A01 T03150179  RH  044%=      5-min Rain = 0
KSC1 111659Z 16007KT 32/18 A3014 RMK A01 T03150178  RH  044%=      5-min Rain = 0
KSC1 111700Z 13006KT 31/18 A3014 RMK A01 T03120177  RH  044%=      5-min Rain = 0
KSC1 111701Z 15010KT 31/17 A3014 RMK A01 T03110174  RH  044%=      5-min Rain = 0
KSC1 111702Z 15009KT 31/17 A3014 RMK A01 T03110171  RH  043%=      5-min Rain = 0
KSC1 111703Z 15008KT 31/17 A3014 RMK A01 T03120168  RH  042%=      5-min Rain = 0
KSC1 111704Z 15010KT 31/17 A3014 RMK A01 T03140171  RH  042%=      5-min Rain = 0
KSC1 111705Z 12007KT 32/17 A3014 RMK A01 T03160171  RH  042%=      5-min Rain = 0
KSC1 111706Z 12005KT 32/17 A3014 RMK A01 T03180171  RH  041%=      5-min Rain = 0
KSC1 111707Z 11005KT 32/17 A3014 RMK A01 T03180168  RH  040%=      5-min Rain = 0
KSC1 111708Z 11006KT 32/17 A3014 RMK A01 T03160171  RH  042%=      5-min Rain = 0
KSC1 111709Z 11007KT 31/17 A3014 RMK A01 T03140171  RH  042%=      5-min Rain = 0
KSC1 111710Z 11005KT 31/17 A3014 RMK A01 T03130170  RH  042%=      5-min Rain = 0
KSC1 111711Z 14007KT 31/17 A3014 RMK A01 T03140174  RH  043%=      5-min Rain = 0
KSC1 111712Z 15007KT 32/17 A3014 RMK A01 T03160172  RH  042%=      5-min Rain = 0
KSC1 111713Z 15008KT 32/17 A3014 RMK A01 T03160168  RH  041%=      5-min Rain = 0
KSC1 111714Z 13006KT 32/17 A3014 RMK A01 T03150168  RH  041%=      5-min Rain = 0
KSC1 111715Z 12009KT 32/17 A3014 RMK A01 T03180168  RH  041%=      5-min Rain = 0
KSC1 111716Z 12010KT 32/16 A3014 RMK A01 T03220159  RH  038%=      5-min Rain = 0
KSC1 111717Z 12009KT 32/16 A3014 RMK A01 T03220157  RH  037%=      5-min Rain = 0
KSC1 111718Z 10008KT 32/16 A3014 RMK A01 T03190158  RH  038%=      5-min Rain = 0
KSC1 111719Z 10006KT 32/16 A3013 RMK A01 T03180162  RH  039%=      5-min Rain = 0
KSC1 111720Z 13008KT 32/16 A3013 RMK A01 T03180161  RH  039%=      5-min Rain = 0
KSC1 111721Z 15010KT 32/16 A3014 RMK A01 T03190162  RH  039%=      5-min Rain = 0
KSC1 111722Z 15010KT 32/16 A3014 RMK A01 T03170163  RH  040%=      5-min Rain = 0
KSC1 111723Z 15009KT 32/17 A3013 RMK A01 T03160166  RH  040%=      5-min Rain = 0
KSC1 111724Z 16010KT 32/17 A3014 RMK A01 T03170167  RH  041%=      5-min Rain = 0
KSC1 111725Z 16009KT 32/17 A3014 RMK A01 T03170168  RH  041%=      5-min Rain = 0
KSC1 111726Z 17008KT 32/17 A3013 RMK A01 T03150167  RH  041%=      5-min Rain = 0
KSC1 111727Z 17006KT 31/17 A3013 RMK A01 T03140167  RH  041%=      5-min Rain = 0
KSC1 111728Z 15004KT 31/17 A3013 RMK A01 T03140171  RH  042%=      5-min Rain = 0
KSC1 111729Z 13007G12KT 32/17 A3013 RMK A01 T03160167  RH  041%=      5-min Rain = 0
KSC1 111730Z 14007KT 32/17 A3013 RMK A01 T03170168  RH  041%=      5-min Rain = 0
KSC1 111731Z 14008KT 32/17 A3013 RMK A01 T03170168  RH  041%=      5-min Rain = 0
KSC1 111732Z 14009KT 32/17 A3013 RMK A01 T03170169  RH  041%=      5-min Rain = 0
KSC1 111733Z 13008KT 32/17 A3013 RMK A01 T03190167  RH  040%=      5-min Rain = 0
KSC1 111734Z 13011KT 32/16 A3013 RMK A01 T03220161  RH  038%=      5-min Rain = 0
KSC1 111735Z 12012KT 32/16 A3013 RMK A01 T03240160  RH  037%=      5-min Rain = 0
KSC1 111736Z 13012KT 32/16 A3013 RMK A01 T03240159  RH  037%=      5-min Rain = 0
KSC1 111737Z 12009KT 32/16 A3013 RMK A01 T03230160  RH  038%=      5-min Rain = 0
KSC1 111738Z 12011G16KT 32/16 A3013 RMK A01 T03210163  RH  039%=      5-min Rain = 0
KSC1 111739Z 12012KT 32/16 A3013 RMK A01 T03220164  RH  039%=      5-min Rain = 0
KSC1 111740Z 15012KT 32/17 A3013 RMK A01 T03220166  RH  039%=      5-min Rain = 0
KSC1 111741Z 16011KT 32/17 A3013 RMK A01 T03220166  RH  039%=      5-min Rain = 0
KSC1 111742Z 15007KT 32/17 A3013 RMK A01 T03210165  RH  039%=      5-min Rain = 0
KSC1 111743Z 14008KT 32/17 A3013 RMK A01 T03200167  RH  040%=      5-min Rain = 0
KSC1 111744Z 11010KT 32/17 A3013 RMK A01 T03220166  RH  039%=      5-min Rain = 0
KSC1 111745Z 12010G16KT 33/17 A3013 RMK A01 T03260167  RH  038%=      5-min Rain = 0
KSC1 111746Z 13012KT 33/16 A3013 RMK A01 T03270159  RH  037%=      5-min Rain = 0
KSC1 111747Z 12012KT 32/16 A3013 RMK A01 T03230155  RH  036%=      5-min Rain = 0
KSC1 111748Z 12010KT 32/16 A3013 RMK A01 T03230156  RH  037%=      5-min Rain = 0
KSC1 111749Z 13011KT 32/16 A3013 RMK A01 T03230156  RH  036%=      5-min Rain = 0
KSC1 111750Z 12013KT 32/16 A3013 RMK A01 T03240158  RH  037%=      5-min Rain = 0
KSC1 111751Z 13012KT 33/16 A3013 RMK A01 T03260158  RH  037%=      5-min Rain = 0
KSC1 111752Z 13011KT 33/16 A3013 RMK A01 T03280159  RH  036%=      5-min Rain = 0
KSC1 111753Z 14010KT 33/16 A3013 RMK A01 T03290160  RH  036%=      5-min Rain = 0
KSC1 111754Z 13011KT 33/16 A3013 RMK A01 T03300159  RH  036%=      5-min Rain = 0
KSC1 111755Z 12008KT 33/16 A3013 RMK A01 T03270156  RH  036%=      5-min Rain = 0
KSC1 111756Z 13009KT 32/16 A3013 RMK A01 T03230155  RH  036%=      5-min Rain = 0
KSC1 111757Z 16007KT 32/16 A3012 RMK A01 T03220157  RH  037%=      5-min Rain = 0
KSC1 111758Z 15008KT 32/16 A3012 RMK A01 T03220158  RH  037%=      5-min Rain = 0
KSC1 111759Z 15007KT 32/16 A3012 RMK A01 T03230158  RH  037%=      5-min Rain = 0
KSC1 111800Z 14008KT 32/16 A3012 RMK A01 T03230157  RH  037%=      5-min Rain = 0
KSC1 111801Z 15011KT 33/16 A3012 RMK A01 T03250158  RH  037%=      5-min Rain = 0
KSC1 111802Z 14011KT 33/16 A3012 RMK A01 T03260158  RH  036%=      5-min Rain = 0
KSC1 111803Z 13009G17KT 33/16 A3012 RMK A01 T03270161  RH  037%=      5-min Rain = 0
KSC1 111804Z 13011G16KT 33/16 A3012 RMK A01 T03300158  RH  036%=      5-min Rain = 0
KSC1 111805Z 13013KT 33/16 A3012 RMK A01 T03300155  RH  035%=      5-min Rain = 0
KSC1 111806Z 12009KT 33/16 A3012 RMK A01 T03290155  RH  035%=      5-min Rain = 0
KSC1 111807Z 13008KT 33/15 A3012 RMK A01 T03290150  RH  034%=      5-min Rain = 0
KSC1 111808Z 12013KT 33/15 A3012 RMK A01 T03300150  RH  034%=      5-min Rain = 0
KSC1 111809Z 11012KT 33/15 A3012 RMK A01 T03290153  RH  035%=      5-min Rain = 0
KSC1 111810Z 13015KT 33/15 A3012 RMK A01 T03300152  RH  034%=      5-min Rain = 0
KSC1 111811Z 13013KT 33/15 A3012 RMK A01 T03300150  RH  034%=      5-min Rain = 0
KSC1 111812Z 12012KT 33/15 A3012 RMK A01 T03300150  RH  034%=      5-min Rain = 0
KSC1 111813Z 14010G15KT 33/16 A3012 RMK A01 T03330155  RH  034%=      5-min Rain = 0
KSC1 111814Z 16009KT 34/16 A3012 RMK A01 T03360158  RH  034%=      5-min Rain = 0
KSC1 111815Z 14008KT 34/16 A3011 RMK A01 T03350158  RH  035%=      5-min Rain = 0
KSC1 111816Z 13009KT 33/16 A3011 RMK A01 T03340159  RH  035%=      5-min Rain = 0
KSC1 111817Z 16010KT 33/16 A3011 RMK A01 T03340155  RH  034%=      5-min Rain = 0
KSC1 111818Z 15010KT 33/15 A3011 RMK A01 T03330154  RH  034%=      5-min Rain = 0
KSC1 111819Z 16009KT 33/15 A3011 RMK A01 T03320154  RH  034%=      5-min Rain = 0
KSC1 111820Z 15008KT 33/16 A3011 RMK A01 T03310157  RH  035%=      5-min Rain = 0
KSC1 111821Z 16012G18KT 33/16 A3011 RMK A01 T03330156  RH  035%=      5-min Rain = 0
KSC1 111822Z 17012KT 33/15 A3011 RMK A01 T03330147  RH  033%=      5-min Rain = 0
KSC1 111823Z 15007KT 33/15 A3011 RMK A01 T03300149  RH  034%=      5-min Rain = 0
KSC1 111824Z 16010KT 33/15 A3011 RMK A01 T03300150  RH  034%=      5-min Rain = 0
KSC1 111825Z 16009KT 33/15 A3011 RMK A01 T03320151  RH  034%=      5-min Rain = 0
KSC1 111826Z 17009KT 33/15 A3011 RMK A01 T03310152  RH  034%=      5-min Rain = 0
KSC1 111827Z 17009KT 33/15 A3011 RMK A01 T03310154  RH  034%=      5-min Rain = 0
KSC1 111828Z 14010KT 33/15 A3011 RMK A01 T03320153  RH  034%=      5-min Rain = 0
KSC1 111829Z 13010KT 33/15 A3011 RMK A01 T03330147  RH  033%=      5-min Rain = 0
KSC1 111830Z 15008KT 33/15 A3011 RMK A01 T03300147  RH  033%=      5-min Rain = 0
KSC1 111831Z 12010KT 33/15 A3011 RMK A01 T03290151  RH  034%=      5-min Rain = 0
KSC1 111832Z 12010KT 33/16 A3011 RMK A01 T03300155  RH  035%=      5-min Rain = 0
KSC1 111833Z 14011KT 33/16 A3011 RMK A01 T03320158  RH  035%=      5-min Rain = 0
KSC1 111834Z 13011G17KT 33/16 A3011 RMK A01 T03340157  RH  035%=      5-min Rain = 0
KSC1 111835Z 12012KT 33/16 A3011 RMK A01 T03340157  RH  035%=      5-min Rain = 0
KSC1 111836Z 12011KT 33/16 A3011 RMK A01 T03340157  RH  035%=      5-min Rain = 0
KSC1 111837Z 15007KT 33/16 A3011 RMK A01 T03340157  RH  035%=      5-min Rain = 0
KSC1 111838Z 17006KT 33/16 A3011 RMK A01 T03320155  RH  035%=      5-min Rain = 0
KSC1 111839Z 17009KT 33/16 A301 RMK A01 T03310156  RH  035%=      5-min Rain = 0
KSC1 111840Z 14010G16KT 33/15 A3011 RMK A01 T03280152  RH  035%=      5-min Rain = 0
KSC1 111841Z 13009G14KT 33/15 A3011 RMK A01 T03260149  RH  034%=      5-min Rain = 0
KSC1 111842Z 11013KT 33/15 A301 RMK A01 T03260150  RH  035%=      5-min Rain = 0
KSC1 111843Z 11013KT 33/15 A301 RMK A01 T03270151  RH  035%=      5-min Rain = 0
KSC1 111844Z 11010KT 33/15 A301 RMK A01 T03290151  RH  034%=      5-min Rain = 0
KSC1 111845Z 11012KT 33/15 A301 RMK A01 T03290153  RH  035%=      5-min Rain = 0
KSC1 111846Z 13014KT 33/15 A301 RMK A01 T03290153  RH  035%=      5-min Rain = 0
KSC1 111847Z 14009KT 33/15 A301 RMK A01 T03300152  RH  034%=      5-min Rain = 0
KSC1 111848Z 13010KT 33/16 A301 RMK A01 T03320156  RH  035%=      5-min Rain = 0
KSC1 111849Z 11009KT 33/16 A301 RMK A01 T03340156  RH  034%=      5-min Rain = 0
KSC1 111850Z 13009KT 33/16 A301 RMK A01 T03340156  RH  034%=      5-min Rain = 0
KSC1 111851Z 12008KT 33/15 A301 RMK A01 T03310154  RH  035%=      5-min Rain = 0
KSC1 111852Z 14011KT 33/16 A301 RMK A01 T03300155  RH  035%=      5-min Rain = 0
KSC1 111853Z 15008KT 33/15 A301 RMK A01 T03270152  RH  035%=      5-min Rain = 0
KSC1 111854Z 14005KT 32/15 A301 RMK A01 T03240153  RH  036%=      5-min Rain = 0
KSC1 111855Z 15006KT 32/16 A301 RMK A01 T03240157  RH  037%=      5-min Rain = 0
KSC1 111856Z 14006KT 33/16 A301 RMK A01 T03280159  RH  036%=      5-min Rain = 0
KSC1 111857Z 13010KT 33/16 A301 RMK A01 T03340161  RH  036%=      5-min Rain = 0
KSC1 111858Z 16010KT 34/16 A301 RMK A01 T03400163  RH  035%=      5-min Rain = 0
KSC1 111859Z 16015G20KT 34/16 A301 RMK A01 T03420155  RH  033%=      5-min Rain = 0
KSC1 111900Z 14015KT 34/15 A301 RMK A01 T03380154  RH  033%=      5-min Rain = 0
KSC1 111901Z 14013KT 34/15 A301 RMK A01 T03380152  RH  033%=      5-min Rain = 0
KSC1 111902Z 14010KT 34/15 A301 RMK A01 T03370150  RH  033%=      5-min Rain = 0
KSC1 111903Z 12011KT 34/15 A301 RMK A01 T03360153  RH  033%=      5-min Rain = 0
KSC1 111904Z 13007KT 34/15 A301 RMK A01 T03380151  RH  033%=      5-min Rain = 0
KSC1 111905Z 13007KT 34/15 A301 RMK A01 T03380150  RH  033%=      5-min Rain = 0
KSC1 111906Z 13008G15KT 34/15 A3009 RMK A01 T03380153  RH  033%=      5-min Rain = 0
KSC1 111907Z 13011KT 34/15 A301 RMK A01 T03400152  RH  032%=      5-min Rain = 0
KSC1 111908Z 15011KT 34/15 A3009 RMK A01 T03420149  RH  031%=      5-min Rain = 0
KSC1 111909Z 13011G18KT 34/15 A301 RMK A01 T03420145  RH  031%=      5-min Rain = 0
KSC1 111910Z 15016G22KT 34/15 A301 RMK A01 T03400145  RH  031%=      5-min Rain = 0
KSC1 111911Z 16011KT 34/15 A3009 RMK A01 T03390148  RH  032%=      5-min Rain = 0
KSC1 111912Z 16010KT 34/15 A3009 RMK A01 T03390149  RH  032%=      5-min Rain = 0
KSC1 111913Z 16009KT 34/15 A3009 RMK A01 T03390148  RH  032%=      5-min Rain = 0
KSC1 111914Z 16010KT 34/15 A3009 RMK A01 T03380149  RH  032%=      5-min Rain = 0
KSC1 111915Z 16007KT 34/15 A3009 RMK A01 T03380147  RH  032%=      5-min Rain = 0
KSC1 111916Z 16008G13KT 34/15 A3009 RMK A01 T03360147  RH  032%=      5-min Rain = 0
KSC1 111917Z 16006KT 33/15 A3009 RMK A01 T03340145  RH  032%=      5-min Rain = 0
KSC1 111918Z 16010KT 33/15 A3009 RMK A01 T03330145  RH  032%=      5-min Rain = 0
KSC1 111919Z 15009G14KT 33/15 A3009 RMK A01 T03330147  RH  033%=      5-min Rain = 0
KSC1 111920Z 12012G18KT 34/15 A3009 RMK A01 T03360150  RH  033%=      5-min Rain = 0
KSC1 111921Z 12009KT 34/15 A3009 RMK A01 T03380151  RH  033%=      5-min Rain = 0
KSC1 111922Z 13012KT 34/15 A3009 RMK A01 T03380149  RH  032%=      5-min Rain = 0
KSC1 111923Z 14011KT 34/15 A3009 RMK A01 T03380148  RH  032%=      5-min Rain = 0
KSC1 111924Z 13009KT 34/15 A3009 RMK A01 T03390145  RH  031%=      5-min Rain = 0
KSC1 111925Z 13009KT 34/15 A3009 RMK A01 T03400145  RH  031%=      5-min Rain = 0
KSC1 111926Z 12009KT 34/14 A3008 RMK A01 T03400142  RH  030%=      5-min Rain = 0
KSC1 111927Z 12009KT 34/14 A3008 RMK A01 T03390143  RH  031%=      5-min Rain = 0
KSC1 111928Z 14013KT 34/15 A3008 RMK A01 T03400145  RH  031%=      5-min Rain = 0
KSC1 111929Z 15011KT 34/14 A3008 RMK A01 T03420143  RH  030%=      5-min Rain = 0
KSC1 111930Z 15010KT 34/14 A3008 RMK A01 T03420137  RH  029%=      5-min Rain = 0
KSC1 111931Z 14009G14KT 34/14 A3008 RMK A01 T03410141  RH  030%=      5-min Rain = 0
KSC1 111932Z 15011KT 34/14 A3008 RMK A01 T03410139  RH  030%=      5-min Rain = 0
KSC1 111933Z 15008KT 34/14 A3008 RMK A01 T03410141  RH  030%=      5-min Rain = 0
KSC1 111934Z 14006KT 34/14 A3008 RMK A01 T03430144  RH  030%=      5-min Rain = 0
KSC1 111935Z 14005KT 35/15 A3008 RMK A01 T03450147  RH  031%=      5-min Rain = 0
KSC1 111936Z 16005KT 34/15 A3008 RMK A01 T03440149  RH  031%=      5-min Rain = 0
KSC1 111937Z 15009G18KT 34/15 A3008 RMK A01 T03430149  RH  031%=      5-min Rain = 0
KSC1 111938Z 16008G14KT 34/15 A3008 RMK A01 T03400149  RH  032%=      5-min Rain = 0
KSC1 111939Z 16006KT 34/15 A3008 RMK A01 T03370152  RH  033%=      5-min Rain = 0
KSC1 111940Z 12010KT 34/15 A3008 RMK A01 T03360152  RH  033%=      5-min Rain = 0
KSC1 111941Z 13007KT 34/15 A3008 RMK A01 T03360150  RH  033%=      5-min Rain = 0
KSC1 111942Z 14007KT 34/15 A3008 RMK A01 T03350149  RH  033%=      5-min Rain = 0
KSC1 111943Z 14010KT 33/15 A3008 RMK A01 T03340150  RH  033%=      5-min Rain = 0
KSC1 111944Z 12010KT 34/15 A3008 RMK A01 T03360153  RH  033%=      5-min Rain = 0
KSC1 111945Z 13011KT 34/16 A3008 RMK A01 T03420155  RH  033%=      5-min Rain = 0
KSC1 111946Z 13010KT 34/15 A3008 RMK A01 T03430148  RH  031%=      5-min Rain = 0
KSC1 111947Z 14010G15KT 34/15 A3008 RMK A01 T03400145  RH  031%=      5-min Rain = 0
KSC1 111948Z 13012KT 34/15 A3008 RMK A01 T03380145  RH  031%=      5-min Rain = 0
KSC1 111949Z 14010KT 34/14 A3008 RMK A01 T03370144  RH  031%=      5-min Rain = 0
KSC1 111950Z 16007KT 34/15 A3008 RMK A01 T03360146  RH  032%=      5-min Rain = 0
KSC1 111951Z 15006KT 34/15 A3008 RMK A01 T03360148  RH  032%=      5-min Rain = 0
KSC1 111952Z 15006KT 34/14 A3007 RMK A01 T03370144  RH  031%=      5-min Rain = 0
KSC1 111953Z 13009KT 34/15 A3007 RMK A01 T03370145  RH  032%=      5-min Rain = 0
KSC1 111954Z 11011KT 34/15 A3007 RMK A01 T03390145  RH  031%=      5-min Rain = 0
KSC1 111955Z 12009KT 34/15 A3007 RMK A01 T03390146  RH  031%=      5-min Rain = 0
KSC1 111956Z 14008KT 34/14 A3007 RMK A01 T03390143  RH  031%=      5-min Rain = 0
KSC1 111957Z 12011G17KT 34/15 A3007 RMK A01 T03410149  RH  032%=      5-min Rain = 0
KSC1 111958Z 12009KT 34/15 A3007 RMK A01 T03430145  RH  031%=      5-min Rain = 0
KSC1 111959Z 11012KT 34/15 A3007 RMK A01 T03430147  RH  031%=      5-min Rain = 0
KSC1 112000Z 10010G16KT 34/15 A3007 RMK A01 T03440147  RH  031%=      5-min Rain = 0
KSC1 112001Z 11013KT 34/15 A3007 RMK A01 T03440146  RH  031%=      5-min Rain = 0
KSC1 112002Z 10013KT 34/15 A3007 RMK A01 T03440146  RH  030%=      5-min Rain = 0
KSC1 112003Z 12012KT 34/15 A3007 RMK A01 T03430147  RH  031%=      5-min Rain = 0
KSC1 112004Z 12013KT 34/15 A3007 RMK A01 T03430145  RH  031%=      5-min Rain = 0
KSC1 112005Z 12012KT 34/15 A3007 RMK A01 T03420145  RH  031%=      5-min Rain = 0
KSC1 112006Z 12012KT 34/14 A3007 RMK A01 T03410143  RH  031%=      5-min Rain = 0
KSC1 112007Z 13008KT 34/15 A3006 RMK A01 T03400147  RH  031%=      5-min Rain = 0
KSC1 112008Z 11011G17KT 34/15 A3007 RMK A01 T03410145  RH  031%=      5-min Rain = 0
KSC1 112009Z 11012KT 34/15 A3007 RMK A01 T03410145  RH  031%=      5-min Rain = 0
KSC1 112010Z 10009KT 34/14 A3006 RMK A01 T03400143  RH  031%=      5-min Rain = 0
KSC1 112011Z 09010KT 34/15 A3006 RMK A01 T03390146  RH  031%=      5-min Rain = 0
KSC1 112012Z 09009KT 34/14 A3006 RMK A01 T03400143  RH  031%=      5-min Rain = 0
KSC1 112013Z 12011G16KT 34/15 A3006 RMK A01 T03400149  RH  032%=      5-min Rain = 0
KSC1 112014Z 13014KT 34/15 A3006 RMK A01 T03440148  RH  031%=      5-min Rain = 0
KSC1 112015Z 15012KT 34/15 A3006 RMK A01 T03440147  RH  031%=      5-min Rain = 0
KSC1 112016Z 14010KT 34/15 A3006 RMK A01 T03440148  RH  031%=      5-min Rain = 0
KSC1 112017Z 15011KT 34/15 A3006 RMK A01 T03430147  RH  031%=      5-min Rain = 0
KSC1 112018Z 16012KT 34/15 A3006 RMK A01 T03430148  RH  031%=      5-min Rain = 0
KSC1 112019Z 18006KT 34/15 A3006 RMK A01 T03420147  RH  031%=      5-min Rain = 0
KSC1 112020Z 15006KT 34/15 A3006 RMK A01 T03400147  RH  031%=      5-min Rain = 0
KSC1 112021Z 13009G14KT 34/15 A3006 RMK A01 T03410149  RH  032%=      5-min Rain = 0
KSC1 112022Z 12010KT 34/15 A3006 RMK A01 T03430147  RH  031%=      5-min Rain = 0
KSC1 112023Z 12009KT 34/15 A3006 RMK A01 T03440149  RH  031%=      5-min Rain = 0
KSC1 112024Z 12006KT 34/15 A3006 RMK A01 T03420146  RH  031%=      5-min Rain = 0
KSC1 112025Z 17008KT 34/15 A3006 RMK A01 T03410149  RH  032%=      5-min Rain = 0
KSC1 112026Z 17008KT 34/15 A3006 RMK A01 T03430150  RH  031%=      5-min Rain = 0
KSC1 112027Z 17008KT 34/15 A3005 RMK A01 T03440147  RH  031%=      5-min Rain = 0
KSC1 112028Z 17010KT 34/15 A3005 RMK A01 T03410147  RH  031%=      5-min Rain = 0
KSC1 112029Z 18012KT 34/15 A3005 RMK A01 T03410146  RH  031%=      5-min Rain = 0
KSC1 112030Z 17009KT 34/15 A3005 RMK A01 T03410146  RH  031%=      5-min Rain = 0
KSC1 112031Z 17009G14KT 34/15 A3005 RMK A01 T03400148  RH  032%=      5-min Rain = 0
KSC1 112032Z 16010KT 34/15 A3005 RMK A01 T03420150  RH  032%=      5-min Rain = 0
KSC1 112033Z 15007KT 34/15 A3005 RMK A01 T03430148  RH  031%=      5-min Rain = 0
KSC1 112034Z 13007KT 34/15 A3005 RMK A01 T03440147  RH  031%=      5-min Rain = 0
KSC1 112035Z 14007G12KT 35/15 A3005 RMK A01 T03450152  RH  031%=      5-min Rain = 0
KSC1 112036Z 16007G12KT 35/15 A3005 RMK A01 T03470149  RH  031%=      5-min Rain = 0
KSC1 112037Z 14007KT 35/15 A3005 RMK A01 T03490147  RH  030%=      5-min Rain = 0
KSC1 112038Z 14005KT 35/15 A3005 RMK A01 T03470146  RH  030%=      5-min Rain = 0
KSC1 112039Z 12005KT 35/15 A3005 RMK A01 T03450145  RH  030%=      5-min Rain = 0
KSC1 112040Z 13007G12KT 34/15 A3005 RMK A01 T03440150  RH  031%=      5-min Rain = 0
KSC1 112041Z 15010KT 35/15 A3005 RMK A01 T03460148  RH  031%=      5-min Rain = 0
KSC1 112042Z 13006KT 35/15 A3005 RMK A01 T03460148  RH  031%=      5-min Rain = 0
KSC1 112043Z 16009KT 35/15 A3005 RMK A01 T03460147  RH  030%=      5-min Rain = 0
KSC1 112044Z 16009KT 34/14 A3005 RMK A01 T03430144  RH  030%=      5-min Rain = 0
KSC1 112045Z 18008KT 34/14 A3005 RMK A01 T03410141  RH  030%=      5-min Rain = 0
KSC1 112046Z 14011KT 34/15 A3005 RMK A01 T03400146  RH  031%=      5-min Rain = 0
KSC1 112047Z 13010KT 34/14 A3005 RMK A01 T03420141  RH  030%=      5-min Rain = 0
KSC1 112048Z 14009KT 34/14 A3005 RMK A01 T03440144  RH  030%=      5-min Rain = 0
KSC1 112049Z 15010KT 35/14 A3005 RMK A01 T03470143  RH  030%=      5-min Rain = 0
KSC1 112050Z 15007KT 34/14 A3004 RMK A01 T03440140  RH  029%=      5-min Rain = 0
KSC1 112051Z 12007KT 34/14 A3004 RMK A01 T03410142  RH  030%=      5-min Rain = 0
KSC1 112052Z 12006KT 34/14 A3004 RMK A01 T03430144  RH  030%=      5-min Rain = 0
KSC1 112053Z 14010KT 35/14 A3004 RMK A01 T03450144  RH  030%=      5-min Rain = 0
KSC1 112054Z 15011KT 35/14 A3004 RMK A01 T03460144  RH  030%=      5-min Rain = 0
KSC1 112055Z 17009KT 35/15 A3004 RMK A01 T03460145  RH  030%=      5-min Rain = 0
KSC1 112056Z 20009KT 35/15 A3004 RMK A01 T03470145  RH  030%=      5-min Rain = 0
KSC1 112057Z 18006KT 35/15 A3004 RMK A01 T03460145  RH  030%=      5-min Rain = 0
KSC1 112058Z 16008KT 35/15 A3004 RMK A01 T03460147  RH  030%=      5-min Rain = 0
KSC1 112059Z 15007KT 35/15 A3004 RMK A01 T03460146  RH  030%=      5-min Rain = 0
KSC1 112100Z 17005KT 35/15 A3004 RMK A01 T03460146  RH  030%=      5-min Rain = 0
KSC1 112101Z 17010KT 35/15 A3004 RMK A01 T03460146  RH  030%=      5-min Rain = 0
KSC1 112102Z 13007KT 35/15 A3004 RMK A01 T03470145  RH  030%=      5-min Rain = 0
KSC1 112103Z 13006KT 35/14 A3004 RMK A01 T03470143  RH  029%=      5-min Rain = 0
KSC1 112104Z 12011G18KT 35/14 A3004 RMK A01 T03480144  RH  029%=      5-min Rain = 0
KSC1 112105Z 12011KT 35/15 A3003 RMK A01 T03490145  RH  029%=      5-min Rain = 0
KSC1 112106Z 12013KT 35/14 A3003 RMK A01 T03490142  RH  029%=      5-min Rain = 0
KSC1 112107Z 14009KT 35/14 A3003 RMK A01 T03470144  RH  030%=      5-min Rain = 0
KSC1 112108Z 18010KT 35/14 A3003 RMK A01 T03480143  RH  029%=      5-min Rain = 0
KSC1 112109Z 18009KT 35/15 A3003 RMK A01 T03480145  RH  030%=      5-min Rain = 0
KSC1 112110Z 16010KT 35/15 A3003 RMK A01 T03460146  RH  030%=      5-min Rain = 0
KSC1 112111Z 15006KT 35/14 A3003 RMK A01 T03460144  RH  030%=      5-min Rain = 0
KSC1 112112Z 17009KT 35/15 A3003 RMK A01 T03480148  RH  030%=      5-min Rain = 0
KSC1 112113Z 18007KT 35/15 A3003 RMK A01 T03510146  RH  029%=      5-min Rain = 0
KSC1 112114Z 15006KT 35/15 A3003 RMK A01 T03510149  RH  030%=      5-min Rain = 0
KSC1 112115Z 12011KT 35/15 A3003 RMK A01 T03510147  RH  029%=      5-min Rain = 0
KSC1 112116Z 13008KT 35/14 A3003 RMK A01 T03520143  RH  029%=      5-min Rain = 0
KSC1 112117Z 10007KT 35/14 A3003 RMK A01 T03490140  RH  028%=      5-min Rain = 0
KSC1 112118Z 10007KT 35/14 A3003 RMK A01 T03450141  RH  029%=      5-min Rain = 0
KSC1 112119Z 12008KT 34/14 A3003 RMK A01 T03430141  RH  030%=      5-min Rain = 0
KSC1 112120Z 13009G15KT 34/15 A3003 RMK A01 T03430145  RH  030%=      5-min Rain = 0
KSC1 112121Z 13011KT 35/14 A3003 RMK A01 T03460142  RH  029%=      5-min Rain = 0
KSC1 112122Z 14008KT 35/14 A3003 RMK A01 T03470141  RH  029%=      5-min Rain = 0
KSC1 112123Z 15009KT 35/14 A3002 RMK A01 T03480142  RH  029%=      5-min Rain = 0
KSC1 112124Z 15006KT 35/14 A3002 RMK A01 T03480140  RH  029%=      5-min Rain = 0
KSC1 112125Z 14006KT 35/14 A3002 RMK A01 T03470140  RH  029%=      5-min Rain = 0
KSC1 112126Z 12007G12KT 35/14 A3002 RMK A01 T03460142  RH  029%=      5-min Rain = 0
KSC1 112127Z 13005KT 35/14 A3002 RMK A01 T03480140  RH  029%=      5-min Rain = 0
KSC1 112128Z 13009KT 35/14 A3002 RMK A01 T03490142  RH  029%=      5-min Rain = 0
KSC1 112129Z 16014KT 35/14 A3002 RMK A01 T03490143  RH  029%=      5-min Rain = 0
KSC1 112130Z 15011KT 35/14 A3002 RMK A01 T03490144  RH  029%=      5-min Rain = 0
KSC1 112131Z 16009KT 35/14 A3002 RMK A01 T03490143  RH  029%=      5-min Rain = 0
KSC1 112132Z 15008KT 35/14 A3002 RMK A01 T03470143  RH  030%=      5-min Rain = 0
KSC1 112133Z 15010KT 35/14 A3002 RMK A01 T03460144  RH  030%=      5-min Rain = 0
KSC1 112134Z 17010KT 35/14 A3002 RMK A01 T03480143  RH  029%=      5-min Rain = 0
KSC1 112135Z 14009KT 35/14 A3002 RMK A01 T03460141  RH  029%=      5-min Rain = 0
KSC1 112136Z 12008KT 34/14 A3002 RMK A01 T03430139  RH  029%=      5-min Rain = 0
KSC1 112137Z 11007KT 34/14 A3002 RMK A01 T03410139  RH  029%=      5-min Rain = 0
KSC1 112138Z 13007KT 34/14 A3002 RMK A01 T03410140  RH  030%=      5-min Rain = 0
KSC1 112139Z 15009KT 34/14 A3002 RMK A01 T03440143  RH  030%=      5-min Rain = 0
KSC1 112140Z 13009G14KT 35/15 A3002 RMK A01 T03480146  RH  030%=      5-min Rain = 0
KSC1 112141Z 12011KT 35/14 A3002 RMK A01 T03530144  RH  029%=      5-min Rain = 0
KSC1 112142Z 11012KT 35/14 A3002 RMK A01 T03530144  RH  029%=      5-min Rain = 0
KSC1 112143Z 12011KT 35/14 A3002 RMK A01 T03510141  RH  028%=      5-min Rain = 0
KSC1 112144Z 13009KT 35/14 A3002 RMK A01 T03490140  RH  029%=      5-min Rain = 0
KSC1 112145Z 14011G16KT 35/14 A3002 RMK A01 T03460140  RH  029%=      5-min Rain = 0
KSC1 112146Z 14011KT 35/14 A3002 RMK A01 T03460140  RH  029%=      5-min Rain = 0
KSC1 112147Z 13012KT 35/14 A3002 RMK A01 T03470143  RH  030%=      5-min Rain = 0
KSC1 112148Z 12012KT 35/14 A3002 RMK A01 T03500144  RH  029%=      5-min Rain = 0
KSC1 112149Z 12012KT 35/14 A3002 RMK A01 T03520141  RH  028%=      5-min Rain = 0
KSC1 112150Z 14011G16KT 35/14 A3002 RMK A01 T03500139  RH  028%=      5-min Rain = 0
KSC1 112151Z 15012KT 35/14 A3002 RMK A01 T03490138  RH  028%=      5-min Rain = 0
KSC1 112152Z 15011KT 35/14 A3002 RMK A01 T03480140  RH  029%=      5-min Rain = 0
KSC1 112153Z 14011KT 35/14 A3002 RMK A01 T03480141  RH  029%=      5-min Rain = 0
KSC1 112154Z 13010KT 35/14 A3002 RMK A01 T03490139  RH  028%=      5-min Rain = 0
KSC1 112155Z 14008KT 35/14 A3002 RMK A01 T03480137  RH  028%=      5-min Rain = 0
KSC1 112156Z 15005KT 35/14 A3002 RMK A01 T03460139  RH  029%=      5-min Rain = 0
KSC1 112157Z 14006KT 35/14 A3001 RMK A01 T03470138  RH  029%=      5-min Rain = 0
KSC1 112158Z 15008KT 35/15 A3001 RMK A01 T03480145  RH  030%=      5-min Rain = 0
KSC1 112159Z 12010KT 35/14 A3001 RMK A01 T03480140  RH  029%=      5-min Rain = 0
KSC1 112200Z 11010KT 35/14 A3001 RMK A01 T03460139  RH  029%=      5-min Rain = 0
KSC1 112201Z 13013KT 34/14 A3001 RMK A01 T03440139  RH  029%=      5-min Rain = 0
KSC1 112202Z 14010KT 34/14 A3001 RMK A01 T03420137  RH  029%=      5-min Rain = 0
KSC1 112203Z 14012KT 34/14 A3001 RMK A01 T03410138  RH  029%=      5-min Rain = 0
KSC1 112204Z 14011KT 34/14 A3001 RMK A01 T03400137  RH  029%=      5-min Rain = 0
KSC1 112205Z 14009KT 34/14 A3001 RMK A01 T03410138  RH  030%=      5-min Rain = 0
KSC1 112206Z 14010G16KT 34/14 A3001 RMK A01 T03440139  RH  029%=      5-min Rain = 0
KSC1 112207Z 11009KT 35/14 A3001 RMK A01 T03460138  RH  029%=      5-min Rain = 0
KSC1 112208Z 14008KT 35/14 A3001 RMK A01 T03460138  RH  029%=      5-min Rain = 0
KSC1 112209Z 16009KT 35/14 A3001 RMK A01 T03460139  RH  029%=      5-min Rain = 0
KSC1 112210Z 16009KT 35/14 A3001 RMK A01 T03460136  RH  028%=      5-min Rain = 0
KSC1 112211Z 17006KT 34/14 A3001 RMK A01 T03430137  RH  029%=      5-min Rain = 0
KSC1 112212Z 16011KT 34/14 A3001 RMK A01 T03410137  RH  029%=      5-min Rain = 0
KSC1 112213Z 14012KT 34/14 A3001 RMK A01 T03420138  RH  029%=      5-min Rain = 0
KSC1 112214Z 14011KT 35/14 A3001 RMK A01 T03450137  RH  029%=      5-min Rain = 0
KSC1 112215Z 11006KT 35/14 A3001 RMK A01 T03460135  RH  028%=      5-min Rain = 0
KSC1 112216Z 11008KT 35/14 A3001 RMK A01 T03460137  RH  029%=      5-min Rain = 0
KSC1 112217Z 12007KT 35/14 A3001 RMK A01 T03450137  RH  029%=      5-min Rain = 0
KSC1 112218Z 13010KT 35/14 A30 RMK A01 T03460138  RH  029%=      5-min Rain = 0
KSC1 112219Z 15010KT 35/14 A30 RMK A01 T03480140  RH  029%=      5-min Rain = 0
KSC1 112220Z 16011KT 35/14 A30 RMK A01 T03500141  RH  029%=      5-min Rain = 0
KSC1 112221Z 17011KT 35/14 A30 RMK A01 T03500141  RH  029%=      5-min Rain = 0
KSC1 112222Z 18009KT 35/14 A30 RMK A01 T03480138  RH  028%=      5-min Rain = 0
KSC1 112223Z 19009KT 35/14 A30 RMK A01 T03460137  RH  028%=      5-min Rain = 0
KSC1 112224Z 19006KT 35/14 A30 RMK A01 T03450139  RH  029%=      5-min Rain = 0
KSC1 112225Z 16009KT 35/14 A30 RMK A01 T03460143  RH  030%=      5-min Rain = 0
KSC1 112226Z 15007KT 35/15 A30 RMK A01 T03510145  RH  029%=      5-min Rain = 0
KSC1 112227Z 15008KT 35/14 A30 RMK A01 T03530140  RH  028%=      5-min Rain = 0
KSC1 112228Z 14011KT 35/14 A30 RMK A01 T03520140  RH  028%=      5-min Rain = 0
KSC1 112229Z 12012KT 35/14 A30 RMK A01 T03510140  RH  028%=      5-min Rain = 0
KSC1 112230Z 12012KT 35/14 A30 RMK A01 T03510142  RH  029%=      5-min Rain = 0
KSC1 112231Z 12009KT 35/14 A30 RMK A01 T03510142  RH  029%=      5-min Rain = 0
KSC1 112232Z 14008G13KT 35/14 A30 RMK A01 T03510141  RH  029%=      5-min Rain = 0
KSC1 112233Z 13006KT 35/14 A30 RMK A01 T03510142  RH  029%=      5-min Rain = 0
KSC1 112234Z 14006KT 35/14 A30 RMK A01 T03500141  RH  029%=      5-min Rain = 0
KSC1 112235Z 12006KT 35/14 A30 RMK A01 T03480137  RH  028%=      5-min Rain = 0
KSC1 112236Z 13007KT 35/14 A30 RMK A01 T03460141  RH  029%=      5-min Rain = 0
KSC1 112237Z 14009KT 35/14 A30 RMK A01 T03480140  RH  029%=      5-min Rain = 0
KSC1 112238Z 14009KT 35/14 A30 RMK A01 T03490141  RH  029%=      5-min Rain = 0
KSC1 112239Z 13011KT 35/14 A30 RMK A01 T03500141  RH  029%=      5-min Rain = 0
KSC1 112240Z 11014KT 35/14 A30 RMK A01 T03500142  RH  029%=      5-min Rain = 0
KSC1 112241Z 12011KT 35/14 A30 RMK A01 T03510139  RH  028%=      5-min Rain = 0
KSC1 112242Z 11013KT 35/14 A30 RMK A01 T03510139  RH  028%=      5-min Rain = 0
KSC1 112243Z 12014KT 35/14 A30 RMK A01 T03500138  RH  028%=      5-min Rain = 0
KSC1 112244Z 12012KT 35/14 A30 RMK A01 T03490140  RH  029%=      5-min Rain = 0
KSC1 112245Z 11015KT 35/14 A30 RMK A01 T03490141  RH  029%=      5-min Rain = 0
KSC1 112246Z 13014KT 35/14 A30 RMK A01 T03490140  RH  029%=      5-min Rain = 0
KSC1 112247Z 14015G20KT 35/14 A30 RMK A01 T03490140  RH  028%=      5-min Rain = 0
KSC1 112248Z 15013KT 35/14 A30 RMK A01 T03490139  RH  028%=      5-min Rain = 0
KSC1 112249Z 14008KT 35/14 A30 RMK A01 T03490142  RH  029%=      5-min Rain = 0
KSC1 112250Z 14010KT 35/14 A30 RMK A01 T03500140  RH  028%=      5-min Rain = 0
KSC1 112251Z 13009KT 35/14 A30 RMK A01 T03500138  RH  028%=      5-min Rain = 0
KSC1 112252Z 11009KT 35/14 A30 RMK A01 T03490137  RH  028%=      5-min Rain = 0
KSC1 112253Z 12008KT 35/14 A30 RMK A01 T03480138  RH  028%=      5-min Rain = 0
KSC1 112254Z 13009KT 35/14 A30 RMK A01 T03470139  RH  029%=      5-min Rain = 0
KSC1 112255Z 12010KT 35/14 A30 RMK A01 T03490139  RH  028%=      5-min Rain = 0
KSC1 112256Z 12009KT 35/14 A30 RMK A01 T03500140  RH  028%=      5-min Rain = 0
KSC1 112257Z 12010KT 35/14 A30 RMK A01 T03510138  RH  028%=      5-min Rain = 0
KSC1 112258Z 11010KT 35/14 A30 RMK A01 T03510139  RH  028%=      5-min Rain = 0
KSC1 112259Z 13009KT 35/14 A30 RMK A01 T03510138  RH  028%=      5-min Rain = 0
KSC1 112300Z 15008KT 35/14 A30 RMK A01 T03520139  RH  028%=      5-min Rain = 0
KSC1 112301Z 15006KT 35/14 A2999 RMK A01 T03510139  RH  028%=      5-min Rain = 0
KSC1 112302Z 15007KT 35/14 A2999 RMK A01 T03510138  RH  028%=      5-min Rain = 0
KSC1 112303Z 13007KT 35/14 A2999 RMK A01 T03500139  RH  028%=      5-min Rain = 0
KSC1 112304Z 13009KT 35/14 A2999 RMK A01 T03500139  RH  028%=      5-min Rain = 0
KSC1 112305Z 13009G14KT 35/14 A2999 RMK A01 T03510141  RH  028%=      5-min Rain = 0
KSC1 112306Z 12011KT 35/14 A2999 RMK A01 T03520137  RH  028%=      5-min Rain = 0
KSC1 112307Z 12008KT 35/14 A2999 RMK A01 T03520139  RH  028%=      5-min Rain = 0
KSC1 112308Z 11010KT 35/14 A2999 RMK A01 T03520139  RH  028%=      5-min Rain = 0
KSC1 112309Z 11009KT 35/14 A2999 RMK A01 T03520138  RH  028%=      5-min Rain = 0
KSC1 112310Z 12006KT 35/14 A2999 RMK A01 T03520139  RH  028%=      5-min Rain = 0
KSC1 112311Z 14007KT 35/14 A2999 RMK A01 T03520140  RH  028%=      5-min Rain = 0
KSC1 112312Z 13009KT 35/14 A2999 RMK A01 T03530139  RH  028%=      5-min Rain = 0
KSC1 112313Z 14009KT 35/14 A2999 RMK A01 T03540137  RH  027%=      5-min Rain = 0
KSC1 112314Z 13008KT 35/14 A2999 RMK A01 T03540137  RH  027%=      5-min Rain = 0
KSC1 112315Z 13009KT 35/14 A2999 RMK A01 T03540136  RH  027%=      5-min Rain = 0
KSC1 112316Z 14009KT 35/14 A2999 RMK A01 T03530136  RH  027%=      5-min Rain = 0
KSC1 112317Z 16011KT 35/14 A2999 RMK A01 T03520138  RH  028%=      5-min Rain = 0
KSC1 112318Z 15009KT 35/14 A2999 RMK A01 T03480136  RH  028%=      5-min Rain = 0
KSC1 112319Z 15008KT 35/14 A2999 RMK A01 T03460137  RH  029%=      5-min Rain = 0
KSC1 112320Z 15009KT 34/14 A2999 RMK A01 T03440136  RH  029%=      5-min Rain = 0
KSC1 112321Z 14007KT 34/14 A2999 RMK A01 T03420136  RH  029%=      5-min Rain = 0
KSC1 112322Z 15005KT 34/14 A2999 RMK A01 T03410137  RH  029%=      5-min Rain = 0
KSC1 112323Z 14007KT 34/14 A2999 RMK A01 T03410138  RH  030%=      5-min Rain = 0
KSC1 112324Z 14011KT 34/14 A2999 RMK A01 T03410136  RH  029%=      5-min Rain = 0
KSC1 112325Z 15008KT 34/14 A2999 RMK A01 T03410136  RH  029%=      5-min Rain = 0
KSC1 112326Z 15007KT 34/14 A2999 RMK A01 T03440140  RH  029%=      5-min Rain = 0
KSC1 112327Z 13008KT 35/14 A2999 RMK A01 T03450139  RH  029%=      5-min Rain = 0
KSC1 112328Z 14008KT 35/14 A2999 RMK A01 T03470138  RH  028%=      5-min Rain = 0
KSC1 112329Z 13006G11KT 35/14 A2999 RMK A01 T03470137  RH  028%=      5-min Rain = 0
KSC1 112330Z 14010KT 35/14 A2999 RMK A01 T03470137  RH  028%=      5-min Rain = 0
KSC1 112331Z 13008KT 35/14 A2999 RMK A01 T03460136  RH  028%=      5-min Rain = 0
KSC1 112332Z 13007KT 34/13 A2999 RMK A01 T03430134  RH  028%=      5-min Rain = 0
KSC1 112333Z 12006KT 34/14 A2999 RMK A01 T03430137  RH  029%=      5-min Rain = 0
KSC1 112334Z 14007KT 34/14 A2999 RMK A01 T03440138  RH  029%=      5-min Rain = 0
KSC1 112335Z 13008KT 34/14 A2999 RMK A01 T03440137  RH  029%=      5-min Rain = 0
KSC1 112336Z 13012KT 34/14 A2999 RMK A01 T03440137  RH  029%=      5-min Rain = 0
KSC1 112337Z 15009G14KT 34/14 A2999 RMK A01 T03410136  RH  029%=      5-min Rain = 0
KSC1 112338Z 16010KT 34/14 A2999 RMK A01 T03400136  RH  029%=      5-min Rain = 0
KSC1 112339Z 16010KT 34/14 A2999 RMK A01 T03390137  RH  030%=      5-min Rain = 0
KSC1 112340Z 16008KT 34/14 A2999 RMK A01 T03390136  RH  029%=      5-min Rain = 0
KSC1 112341Z 16008KT 34/14 A2999 RMK A01 T03400137  RH  029%=      5-min Rain = 0
KSC1 112342Z 15007KT 34/14 A2999 RMK A01 T03400138  RH  030%=      5-min Rain = 0
KSC1 112343Z 15010KT 34/14 A2999 RMK A01 T03390137  RH  030%=      5-min Rain = 0
KSC1 112344Z 14010KT 34/14 A2999 RMK A01 T03400135  RH  029%=      5-min Rain = 0
KSC1 112345Z 12007KT 34/14 A2999 RMK A01 T03410136  RH  029%=      5-min Rain = 0
KSC1 112346Z 12008KT 34/14 A2999 RMK A01 T03420136  RH  029%=      5-min Rain = 0
KSC1 112347Z 14007KT 34/14 A2999 RMK A01 T03430137  RH  029%=      5-min Rain = 0
KSC1 112348Z 13007KT 35/14 A2999 RMK A01 T03450138  RH  029%=      5-min Rain = 0
KSC1 112349Z 13006KT 35/14 A2999 RMK A01 T03450137  RH  029%=      5-min Rain = 0
KSC1 112350Z 13007G14KT 35/14 A2999 RMK A01 T03460138  RH  029%=      5-min Rain = 0
KSC1 112351Z 13009KT 35/14 A2999 RMK A01 T03470138  RH  029%=      5-min Rain = 0
KSC1 112352Z 13008KT 35/14 A2999 RMK A01 T03480140  RH  029%=      5-min Rain = 0
KSC1 112353Z 13010KT 35/14 A2999 RMK A01 T03490139  RH  028%=      5-min Rain = 0
KSC1 112354Z 14010KT 35/14 A2998 RMK A01 T03480136  RH  028%=      5-min Rain = 0
KSC1 112355Z 15009KT 35/14 A2998 RMK A01 T03470136  RH  028%=      5-min Rain = 0
KSC1 112356Z 17007KT 35/14 A2998 RMK A01 T03460136  RH  028%=      5-min Rain = 0
KSC1 112357Z 13004KT 35/14 A2998 RMK A01 T03450137  RH  029%=      5-min Rain = 0
KSC1 112358Z 14005KT 35/14 A2998 RMK A01 T03450137  RH  029%=      5-min Rain = 0
KSC1 112359Z 14006KT 35/14 A2998 RMK A01 T03460137  RH  029%=      5-min Rain = 0
KSC1 120000Z 15007KT 35/14 A2998 RMK A01 T03460137  RH  029%=      5-min Rain = 0
KSC1 120001Z 16008KT 35/14 A2998 RMK A01 T03470137  RH  028%=      5-min Rain = 0
KSC1 120002Z 17010KT 35/14 A2998 RMK A01 T03470137  RH  028%=      5-min Rain = 0
KSC1 120003Z 16009KT 35/14 A2998 RMK A01 T03460136  RH  028%=      5-min Rain = 0
KSC1 120004Z 17006KT 35/14 A2999 RMK A01 T03460139  RH  029%=      5-min Rain = 0
KSC1 120005Z 16008KT 35/14 A2999 RMK A01 T03450136  RH  028%=      5-min Rain = 0
KSC1 120006Z 17007KT 34/14 A2999 RMK A01 T03430135  RH  029%=      5-min Rain = 0
KSC1 120007Z 15006KT 34/14 A2999 RMK A01 T03410136  RH  029%=      5-min Rain = 0
KSC1 120008Z 14007KT 34/14 A2999 RMK A01 T03410138  RH  030%=      5-min Rain = 0
KSC1 120009Z 15008KT 34/14 A2999 RMK A01 T03420139  RH  030%=      5-min Rain = 0
KSC1 120010Z 15005KT 34/14 A2999 RMK A01 T03420138  RH  029%=      5-min Rain = 0
KSC1 120011Z 15007KT 34/14 A2999 RMK A01 T03430137  RH  029%=      5-min Rain = 0
KSC1 120012Z 16006KT 34/14 A2999 RMK A01 T03440138  RH  029%=      5-min Rain = 0
KSC1 120013Z 16007KT 35/14 A2999 RMK A01 T03450138  RH  029%=      5-min Rain = 0
KSC1 120014Z 16008G13KT 35/14 A2999 RMK A01 T03450136  RH  028%=      5-min Rain = 0
KSC1 120015Z 15008KT 34/14 A2999 RMK A01 T03440135  RH  028%=      5-min Rain = 0
KSC1 120016Z 14007KT 34/14 A2999 RMK A01 T03440135  RH  029%=      5-min Rain = 0
KSC1 120017Z 14008KT 34/13 A2999 RMK A01 T03440133  RH  028%=      5-min Rain = 0
KSC1 120018Z 14008KT 34/13 A2999 RMK A01 T03440134  RH  028%=      5-min Rain = 0
KSC1 120019Z 14007KT 34/13 A2999 RMK A01 T03440134  RH  028%=      5-min Rain = 0
KSC1 120020Z 15007KT 35/13 A2999 RMK A01 T03450133  RH  028%=      5-min Rain = 0
KSC1 120021Z 15008KT 35/13 A2999 RMK A01 T03450134  RH  028%=      5-min Rain = 0
KSC1 120022Z 15007KT 35/13 A2999 RMK A01 T03450133  RH  028%=      5-min Rain = 0
KSC1 120023Z 16006KT 35/13 A2999 RMK A01 T03460134  RH  028%=      5-min Rain = 0
KSC1 120024Z 16006KT 35/14 A2999 RMK A01 T03460135  RH  028%=      5-min Rain = 0
KSC1 120025Z 16006KT 35/14 A2999 RMK A01 T03460135  RH  028%=      5-min Rain = 0
KSC1 120026Z 14006G11KT 35/14 A2999 RMK A01 T03460137  RH  029%=      5-min Rain = 0
KSC1 120027Z 14008KT 35/14 A2999 RMK A01 T03460135  RH  028%=      5-min Rain = 0
KSC1 120028Z 14006KT 35/14 A2999 RMK A01 T03460135  RH  028%=      5-min Rain = 0
KSC1 120029Z 15005KT 35/14 A2999 RMK A01 T03470135  RH  028%=      5-min Rain = 0
KSC1 120030Z 13006G11KT 35/14 A2999 RMK A01 T03470137  RH  028%=      5-min Rain = 0
KSC1 120031Z 14010KT 35/14 A2999 RMK A01 T03480136  RH  028%=      5-min Rain = 0
KSC1 120032Z 14008KT 35/13 A2999 RMK A01 T03470133  RH  028%=      5-min Rain = 0
KSC1 120033Z 13008KT 35/13 A2999 RMK A01 T03460134  RH  028%=      5-min Rain = 0
KSC1 120034Z 13008KT 35/13 A2999 RMK A01 T03450133  RH  028%=      5-min Rain = 0
KSC1 120035Z 13009KT 35/13 A2999 RMK A01 T03450132  RH  028%=      5-min Rain = 0
KSC1 120036Z 13009KT 34/13 A30 RMK A01 T03440133  RH  028%=      5-min Rain = 0
KSC1 120037Z 13008KT 34/13 A2999 RMK A01 T03440133  RH  028%=      5-min Rain = 0
KSC1 120038Z 13008KT 34/13 A2999 RMK A01 T03440133  RH  028%=      5-min Rain = 0
KSC1 120039Z 13007KT 34/13 A2999 RMK A01 T03440133  RH  028%=      5-min Rain = 0
KSC1 120040Z 13006KT 34/13 A2999 RMK A01 T03430133  RH  028%=      5-min Rain = 0
KSC1 120041Z 13006KT 34/13 A2999 RMK A01 T03430134  RH  028%=      5-min Rain = 0
KSC1 120042Z 14007KT 34/14 A2999 RMK A01 T03440135  RH  028%=      5-min Rain = 0
KSC1 120043Z 13008KT 34/14 A2999 RMK A01 T03440135  RH  028%=      5-min Rain = 0
KSC1 120044Z 12008KT 34/13 A2999 RMK A01 T03440133  RH  028%=      5-min Rain = 0
KSC1 120045Z 12007KT 34/13 A2999 RMK A01 T03430132  RH  028%=      5-min Rain = 0
KSC1 120046Z 13006KT 34/13 A2999 RMK A01 T03420133  RH  028%=      5-min Rain = 0
KSC1 120047Z 13009KT 34/13 A2999 RMK A01 T03420132  RH  028%=      5-min Rain = 0
KSC1 120048Z 14008KT 34/13 A2999 RMK A01 T03420132  RH  028%=      5-min Rain = 0
KSC1 120049Z 14007KT 34/13 A2999 RMK A01 T03420130  RH  028%=      5-min Rain = 0
KSC1 120050Z 13007KT 34/13 A2999 RMK A01 T03420131  RH  028%=      5-min Rain = 0
KSC1 120051Z 12009KT 34/13 A2999 RMK A01 T03410131  RH  028%=      5-min Rain = 0
KSC1 120052Z 12010KT 34/13 A2999 RMK A01 T03410129  RH  028%=      5-min Rain = 0
KSC1 120053Z 13008KT 34/13 A2999 RMK A01 T03410131  RH  028%=      5-min Rain = 0
KSC1 120054Z 13009KT 34/13 A2999 RMK A01 T03410131  RH  028%=      5-min Rain = 0
KSC1 120055Z 13008KT 34/13 A2999 RMK A01 T03400131  RH  028%=      5-min Rain = 0
KSC1 120056Z 13009KT 34/13 A2999 RMK A01 T03390130  RH  028%=      5-min Rain = 0
KSC1 120057Z 14006KT 34/13 A2999 RMK A01 T03380131  RH  029%=      5-min Rain = 0
KSC1 120058Z 14008KT 34/13 A2999 RMK A01 T03370131  RH  029%=      5-min Rain = 0
KSC1 120059Z 14008KT 34/13 A30 RMK A01 T03370130  RH  029%=      5-min Rain = 0
KSC1 120100Z 15006KT 34/13 A30 RMK A01 T03360130  RH  029%=      5-min Rain = 0
KSC1 120101Z 14006KT 34/13 A30 RMK A01 T03360129  RH  029%=      5-min Rain = 0
KSC1 120102Z 13007KT 34/13 A30 RMK A01 T03350129  RH  029%=      5-min Rain = 0
KSC1 120103Z 13007KT 34/13 A30 RMK A01 T03350129  RH  029%=      5-min Rain = 0
KSC1 120104Z 13007KT 34/13 A30 RMK A01 T03350127  RH  028%=      5-min Rain = 0
KSC1 120105Z 13009KT 34/13 A30 RMK A01 T03350126  RH  028%=      5-min Rain = 0
KSC1 120106Z 13006KT 34/13 A30 RMK A01 T03360127  RH  028%=      5-min Rain = 0
KSC1 120107Z 13005KT 34/13 A30 RMK A01 T03350128  RH  029%=      5-min Rain = 0
KSC1 120108Z 13007KT 34/13 A30 RMK A01 T03350129  RH  029%=      5-min Rain = 0
KSC1 120109Z 14007KT 34/13 A30 RMK A01 T03350129  RH  029%=      5-min Rain = 0
KSC1 120110Z 14006KT 34/13 A30 RMK A01 T03350129  RH  029%=      5-min Rain = 0
KSC1 120111Z 14005KT 34/13 A30 RMK A01 T03350129  RH  029%=      5-min Rain = 0
KSC1 120112Z 13006KT 34/13 A30 RMK A01 T03350129  RH  029%=      5-min Rain = 0
KSC1 120113Z 14007KT 34/13 A30 RMK A01 T03350129  RH  029%=      5-min Rain = 0
KSC1 120114Z 14007KT 34/13 A30 RMK A01 T03350129  RH  029%=      5-min Rain = 0
KSC1 120115Z 14008KT 34/13 A30 RMK A01 T03350129  RH  029%=      5-min Rain = 0
KSC1 120116Z 15007KT 34/13 A30 RMK A01 T03350130  RH  029%=      5-min Rain = 0
KSC1 120117Z 15007KT 34/13 A30 RMK A01 T03350131  RH  029%=      5-min Rain = 0
KSC1 120118Z 14006KT 34/13 A30 RMK A01 T03350131  RH  029%=      5-min Rain = 0
KSC1 120119Z 14007KT 33/13 A30 RMK A01 T03340131  RH  029%=      5-min Rain = 0
KSC1 120120Z 14006KT 33/13 A30 RMK A01 T03330131  RH  029%=      5-min Rain = 0
KSC1 120121Z 13007KT 33/13 A30 RMK A01 T03330131  RH  029%=      5-min Rain = 0
KSC1 120122Z 14007KT 33/13 A30 RMK A01 T03320131  RH  030%=      5-min Rain = 0
KSC1 120123Z 14007KT 33/13 A30 RMK A01 T03320131  RH  030%=      5-min Rain = 0
KSC1 120124Z 14007KT 33/13 A30 RMK A01 T03320131  RH  030%=      5-min Rain = 0
KSC1 120125Z 14006KT 33/13 A30 RMK A01 T03310130  RH  029%=      5-min Rain = 0
KSC1 120126Z 14006KT 33/13 A30 RMK A01 T03310129  RH  029%=      5-min Rain = 0
KSC1 120127Z 14006KT 33/13 A30 RMK A01 T03310130  RH  030%=      5-min Rain = 0
KSC1 120128Z 14006KT 33/13 A30 RMK A01 T03300130  RH  030%=      5-min Rain = 0
KSC1 120129Z 14006KT 33/13 A30 RMK A01 T03290130  RH  030%=      5-min Rain = 0
KSC1 120130Z 14006KT 33/13 A30 RMK A01 T03280130  RH  030%=      5-min Rain = 0
KSC1 120131Z 14005KT 33/13 A30 RMK A01 T03280130  RH  030%=      5-min Rain = 0
KSC1 120132Z 15006KT 33/13 A30 RMK A01 T03270129  RH  030%=      5-min Rain = 0
KSC1 120133Z 15006KT 33/13 A30 RMK A01 T03270129  RH  030%=      5-min Rain = 0
KSC1 120134Z 14005KT 33/13 A30 RMK A01 T03260129  RH  030%=      5-min Rain = 0
KSC1 120135Z 14005KT 33/13 A30 RMK A01 T03260129  RH  030%=      5-min Rain = 0
KSC1 120136Z 14006KT 33/13 A30 RMK A01 T03260129  RH  030%=      5-min Rain = 0
KSC1 120137Z 14007KT 33/13 A30 RMK A01 T03250129  RH  030%=      5-min Rain = 0
KSC1 120138Z 14005KT 33/13 A30 RMK A01 T03250128  RH  030%=      5-min Rain = 0
KSC1 120139Z 14005KT 33/13 A30 RMK A01 T03250128  RH  030%=      5-min Rain = 0
KSC1 120140Z 15005KT 32/13 A30 RMK A01 T03240128  RH  030%=      5-min Rain = 0
KSC1 120141Z 15006KT 32/13 A30 RMK A01 T03240128  RH  030%=      5-min Rain = 0
KSC1 120142Z 15005KT 32/13 A30 RMK A01 T03230129  RH  031%=      5-min Rain = 0
KSC1 120143Z 15006KT 32/13 A30 RMK A01 T03230129  RH  031%=      5-min Rain = 0
KSC1 120144Z 15005KT 32/13 A30 RMK A01 T03220129  RH  031%=      5-min Rain = 0
KSC1 120145Z 15006KT 32/13 A30 RMK A01 T03210129  RH  031%=      5-min Rain = 0
KSC1 120146Z 15005KT 32/13 A30 RMK A01 T03210129  RH  031%=      5-min Rain = 0
KSC1 120147Z 15005KT 32/13 A30 RMK A01 T03210130  RH  031%=      5-min Rain = 0
KSC1 120148Z 15005KT 32/13 A30 RMK A01 T03210130  RH  031%=      5-min Rain = 0
KSC1 120149Z 15005KT 32/13 A30 RMK A01 T03200130  RH  032%=      5-min Rain = 0
KSC1 120150Z 15004KT 32/13 A30 RMK A01 T03190131  RH  032%=      5-min Rain = 0
KSC1 120151Z 16004KT 32/13 A3001 RMK A01 T03180131  RH  032%=      5-min Rain = 0
KSC1 120152Z 16004KT 32/13 A3001 RMK A01 T03170132  RH  032%=      5-min Rain = 0
KSC1 120153Z 16004KT 32/13 A3001 RMK A01 T03160131  RH  032%=      5-min Rain = 0
KSC1 120154Z 16005KT 32/13 A3001 RMK A01 T03150131  RH  033%=      5-min Rain = 0
KSC1 120155Z 16005KT 32/13 A3001 RMK A01 T03150131  RH  033%=      5-min Rain = 0
KSC1 120156Z 16005KT 32/13 A3001 RMK A01 T03150132  RH  033%=      5-min Rain = 0
KSC1 120157Z 15005KT 31/13 A3001 RMK A01 T03140132  RH  033%=      5-min Rain = 0
KSC1 120158Z 16005KT 31/13 A3001 RMK A01 T03140132  RH  033%=      5-min Rain = 0
KSC1 120159Z 15005KT 31/13 A3001 RMK A01 T03130132  RH  033%=      5-min Rain = 0
KSC1 120200Z 16005KT 31/13 A3001 RMK A01 T03120132  RH  033%=      5-min Rain = 0
KSC1 120201Z 16005KT 31/13 A3001 RMK A01 T03120133  RH  034%=      5-min Rain = 0
KSC1 120202Z 16005KT 31/13 A3001 RMK A01 T03110132  RH  034%=      5-min Rain = 0
KSC1 120203Z 16005KT 31/13 A3001 RMK A01 T03110133  RH  034%=      5-min Rain = 0
KSC1 120204Z 15005KT 31/13 A3001 RMK A01 T03110133  RH  034%=      5-min Rain = 0
KSC1 120205Z 15005KT 31/13 A3001 RMK A01 T03100133  RH  034%=      5-min Rain = 0
KSC1 120206Z 16005KT 31/13 A3001 RMK A01 T03100133  RH  034%=      5-min Rain = 0
KSC1 120207Z 16005KT 31/13 A3001 RMK A01 T03100133  RH  034%=      5-min Rain = 0
KSC1 120208Z 15004KT 31/13 A3001 RMK A01 T03090133  RH  034%=      5-min Rain = 0
KSC1 120209Z 15004KT 31/13 A3001 RMK A01 T03090133  RH  034%=      5-min Rain = 0
KSC1 120210Z 15004KT 31/13 A3001 RMK A01 T03080133  RH  034%=      5-min Rain = 0
KSC1 120211Z 16005KT 31/13 A3001 RMK A01 T03080133  RH  035%=      5-min Rain = 0
KSC1 120212Z 16004KT 31/13 A3001 RMK A01 T03070134  RH  035%=      5-min Rain = 0
KSC1 120213Z 16004KT 31/13 A3001 RMK A01 T03060134  RH  035%=      5-min Rain = 0
KSC1 120214Z 16004KT 31/13 A3001 RMK A01 T03060134  RH  035%=      5-min Rain = 0
KSC1 120215Z 15004KT 31/13 A3001 RMK A01 T03060134  RH  035%=      5-min Rain = 0
KSC1 120216Z 15004KT 31/13 A3001 RMK A01 T03050134  RH  035%=      5-min Rain = 0
KSC1 120217Z 16004KT 31/13 A3001 RMK A01 T03050134  RH  035%=      5-min Rain = 0
KSC1 120218Z 15004KT 31/13 A3001 RMK A01 T03050134  RH  035%=      5-min Rain = 0
KSC1 120219Z 15004KT 30/14 A3001 RMK A01 T03040135  RH  035%=      5-min Rain = 0
KSC1 120220Z 16004KT 30/13 A3001 RMK A01 T03040134  RH  035%=      5-min Rain = 0
KSC1 120221Z 16004KT 30/13 A3001 RMK A01 T03030134  RH  036%=      5-min Rain = 0
KSC1 120222Z 16004KT 30/14 A3001 RMK A01 T03030135  RH  036%=      5-min Rain = 0
KSC1 120223Z 16005KT 30/13 A3001 RMK A01 T03030134  RH  036%=      5-min Rain = 0
KSC1 120224Z 16005KT 30/13 A3002 RMK A01 T03030134  RH  036%=      5-min Rain = 0
KSC1 120225Z 17004KT 30/14 A3002 RMK A01 T03030135  RH  036%=      5-min Rain = 0
KSC1 120226Z 17004KT 30/14 A3002 RMK A01 T03030135  RH  036%=      5-min Rain = 0
KSC1 120227Z 16005KT 30/14 A3002 RMK A01 T03020135  RH  036%=      5-min Rain = 0
KSC1 120228Z 16005KT 30/13 A3002 RMK A01 T03020134  RH  036%=      5-min Rain = 0
KSC1 120229Z 16005KT 30/13 A3002 RMK A01 T03020134  RH  036%=      5-min Rain = 0
KSC1 120230Z 16005KT 30/14 A3002 RMK A01 T03020135  RH  036%=      5-min Rain = 0
KSC1 120231Z 16005KT 30/14 A3002 RMK A01 T03020135  RH  036%=      5-min Rain = 0
KSC1 120232Z 16005KT 30/14 A3002 RMK A01 T03020135  RH  036%=      5-min Rain = 0
KSC1 120233Z 16005KT 30/14 A3002 RMK A01 T03020135  RH  036%=      5-min Rain = 0
KSC1 120234Z 15005KT 30/14 A3002 RMK A01 T03010135  RH  036%=      5-min Rain = 0
KSC1 120235Z 16005KT 30/14 A3002 RMK A01 T03010135  RH  036%=      5-min Rain = 0
KSC1 120236Z 16005KT 30/14 A3002 RMK A01 T03010135  RH  036%=      5-min Rain = 0
KSC1 120237Z 16005KT 30/14 A3002 RMK A01 T03000135  RH  036%=      5-min Rain = 0
KSC1 120238Z 16005KT 30/14 A3002 RMK A01 T03000135  RH  037%=      5-min Rain = 0
KSC1 120239Z 16005KT 30/14 A3002 RMK A01 T03000135  RH  037%=      5-min Rain = 0
KSC1 120240Z 16005KT 30/14 A3002 RMK A01 T03000136  RH  037%=      5-min Rain = 0
KSC1 120241Z 16005KT 30/14 A3002 RMK A01 T02990136  RH  037%=      5-min Rain = 0
KSC1 120242Z 16005KT 30/14 A3002 RMK A01 T02980136  RH  037%=      5-min Rain = 0
KSC1 120243Z 16005KT 30/14 A3002 RMK A01 T02980136  RH  037%=      5-min Rain = 0
KSC1 120244Z 16005KT 30/14 A3002 RMK A01 T02970136  RH  037%=      5-min Rain = 0
KSC1 120245Z 16005KT 30/14 A3002 RMK A01 T02970136  RH  037%=      5-min Rain = 0
KSC1 120246Z 16004KT 30/14 A3002 RMK A01 T02970136  RH  038%=      5-min Rain = 0
KSC1 120247Z 16005KT 30/14 A3002 RMK A01 T02960136  RH  038%=      5-min Rain = 0
KSC1 120248Z 18005KT 30/14 A3003 RMK A01 T02960137  RH  038%=      5-min Rain = 0
KSC1 120249Z 18006KT 30/14 A3003 RMK A01 T02950137  RH  038%=      5-min Rain = 0
KSC1 120250Z 17005KT 29/14 A3003 RMK A01 T02940136  RH  038%=      5-min Rain = 0
KSC1 120251Z 17005KT 29/14 A3003 RMK A01 T02940137  RH  038%=      5-min Rain = 0
KSC1 120252Z 17005KT 29/14 A3003 RMK A01 T02940137  RH  038%=      5-min Rain = 0
KSC1 120253Z 16005KT 29/14 A3003 RMK A01 T02940137  RH  038%=      5-min Rain = 0
KSC1 120254Z 16005KT 29/14 A3003 RMK A01 T02940137  RH  038%=      5-min Rain = 0
KSC1 120255Z 17004KT 29/14 A3003 RMK A01 T02940137  RH  038%=      5-min Rain = 0
KSC1 120256Z 17004KT 29/14 A3003 RMK A01 T02940137  RH  038%=      5-min Rain = 0
KSC1 120257Z 17004KT 29/14 A3003 RMK A01 T02940137  RH  038%=      5-min Rain = 0
KSC1 120258Z 17004KT 29/14 A3003 RMK A01 T02940138  RH  038%=      5-min Rain = 0
KSC1 120259Z 16005KT 29/14 A3003 RMK A01 T02940138  RH  038%=      5-min Rain = 0
KSC1 120300Z 16005KT 29/14 A3003 RMK A01 T02940137  RH  038%=      5-min Rain = 0
KSC1 120301Z 16004KT 29/14 A3003 RMK A01 T02930138  RH  039%=      5-min Rain = 0
KSC1 120302Z 16005KT 29/14 A3003 RMK A01 T02930138  RH  039%=      5-min Rain = 0
KSC1 120303Z 16005KT 29/14 A3003 RMK A01 T02920138  RH  039%=      5-min Rain = 0
KSC1 120304Z 16004KT 29/14 A3003 RMK A01 T02910139  RH  039%=      5-min Rain = 0
KSC1 120305Z 17004KT 29/14 A3003 RMK A01 T02910139  RH  039%=      5-min Rain = 0
KSC1 120306Z 17004KT 29/14 A3004 RMK A01 T02900139  RH  039%=      5-min Rain = 0
KSC1 120307Z 17004KT 29/14 A3004 RMK A01 T02900139  RH  040%=      5-min Rain = 0
KSC1 120308Z 17004KT 29/14 A3004 RMK A01 T02890139  RH  040%=      5-min Rain = 0
KSC1 120309Z 17004KT 29/14 A3004 RMK A01 T02890139  RH  040%=      5-min Rain = 0
KSC1 120310Z 18004KT 29/14 A3004 RMK A01 T02880139  RH  040%=      5-min Rain = 0
KSC1 120311Z 18004KT 29/14 A3004 RMK A01 T02880139  RH  040%=      5-min Rain = 0
KSC1 120312Z 18004KT 29/14 A3004 RMK A01 T02880139  RH  040%=      5-min Rain = 0
KSC1 120313Z 18004KT 29/14 A3004 RMK A01 T02880139  RH  040%=      5-min Rain = 0
KSC1 120314Z 17005KT 29/14 A3004 RMK A01 T02870139  RH  040%=      5-min Rain = 0
KSC1 120315Z 17005KT 29/14 A3004 RMK A01 T02870139  RH  040%=      5-min Rain = 0
KSC1 120316Z 17005KT 29/14 A3004 RMK A01 T02880140  RH  040%=      5-min Rain = 0
KSC1 120317Z 17004KT 29/14 A3004 RMK A01 T02870140  RH  041%=      5-min Rain = 0
KSC1 120318Z 17004KT 29/14 A3004 RMK A01 T02870140  RH  041%=      5-min Rain = 0
KSC1 120319Z 17004KT 29/14 A3004 RMK A01 T02860140  RH  041%=      5-min Rain = 0
KSC1 120320Z 17004KT 29/14 A3004 RMK A01 T02850140  RH  041%=      5-min Rain = 0
KSC1 120321Z 17004KT 29/14 A3004 RMK A01 T02850140  RH  041%=      5-min Rain = 0
KSC1 120322Z 17004KT 28/14 A3004 RMK A01 T02840140  RH  041%=      5-min Rain = 0
KSC1 120323Z 17004KT 28/14 A3005 RMK A01 T02840141  RH  041%=      5-min Rain = 0
KSC1 120324Z 17005KT 28/14 A3005 RMK A01 T02840140  RH  041%=      5-min Rain = 0
KSC1 120325Z 17005KT 28/14 A3005 RMK A01 T02840141  RH  042%=      5-min Rain = 0
KSC1 120326Z 17005KT 28/14 A3005 RMK A01 T02840141  RH  042%=      5-min Rain = 0
KSC1 120327Z 17005KT 28/14 A3005 RMK A01 T02830141  RH  042%=      5-min Rain = 0
KSC1 120328Z 17004KT 28/14 A3005 RMK A01 T02830141  RH  042%=      5-min Rain = 0
KSC1 120329Z 17005KT 28/14 A3005 RMK A01 T02830141  RH  042%=      5-min Rain = 0
KSC1 120330Z 17005KT 28/14 A3005 RMK A01 T02820140  RH  042%=      5-min Rain = 0
KSC1 120331Z 17005KT 28/14 A3005 RMK A01 T02830141  RH  042%=      5-min Rain = 0
KSC1 120332Z 17005KT 28/14 A3005 RMK A01 T02830140  RH  042%=      5-min Rain = 0
KSC1 120333Z 17005KT 28/14 A3005 RMK A01 T02830140  RH  041%=      5-min Rain = 0
KSC1 120334Z 17005KT 28/14 A3005 RMK A01 T02840140  RH  041%=      5-min Rain = 0
KSC1 120335Z 17006KT 28/14 A3005 RMK A01 T02840140  RH  041%=      5-min Rain = 0
KSC1 120336Z 17005KT 29/14 A3005 RMK A01 T02860140  RH  041%=      5-min Rain = 0
KSC1 120337Z 17005KT 29/14 A3005 RMK A01 T02860140  RH  041%=      5-min Rain = 0
KSC1 120338Z 17005KT 29/14 A3006 RMK A01 T02860139  RH  041%=      5-min Rain = 0
KSC1 120339Z 17006KT 29/14 A3006 RMK A01 T02870139  RH  040%=      5-min Rain = 0
KSC1 120340Z 18005KT 29/14 A3006 RMK A01 T02880139  RH  040%=      5-min Rain = 0
KSC1 120341Z 18005KT 29/14 A3006 RMK A01 T02880139  RH  040%=      5-min Rain = 0
KSC1 120342Z 18006KT 29/14 A3006 RMK A01 T02890139  RH  040%=      5-min Rain = 0
KSC1 120343Z 17005KT 29/14 A3006 RMK A01 T02900139  RH  040%=      5-min Rain = 0
KSC1 120344Z 17005KT 29/14 A3006 RMK A01 T02900139  RH  040%=      5-min Rain = 0
KSC1 120345Z 17004KT 29/14 A3006 RMK A01 T02900139  RH  040%=      5-min Rain = 0
KSC1 120346Z 17004KT 29/14 A3006 RMK A01 T02900139  RH  040%=      5-min Rain = 0
KSC1 120347Z 17005KT 29/14 A3006 RMK A01 T02900138  RH  040%=      5-min Rain = 0
KSC1 120348Z 17004KT 29/14 A3006 RMK A01 T02890138  RH  040%=      5-min Rain = 0
KSC1 120349Z 18004KT 29/14 A3006 RMK A01 T02900138  RH  040%=      5-min Rain = 0
KSC1 120350Z 17005KT 29/14 A3006 RMK A01 T02900139  RH  040%=      5-min Rain = 0
KSC1 120351Z 17005KT 29/14 A3006 RMK A01 T02900139  RH  040%=      5-min Rain = 0
KSC1 120352Z 17005KT 29/14 A3006 RMK A01 T02890138  RH  039%=      5-min Rain = 0
KSC1 120353Z 17005KT 29/14 A3006 RMK A01 T02890138  RH  039%=      5-min Rain = 0
KSC1 120354Z 17006KT 29/14 A3006 RMK A01 T02900138  RH  040%=      5-min Rain = 0
KSC1 120355Z 17005KT 29/14 A3006 RMK A01 T02890139  RH  040%=      5-min Rain = 0
KSC1 120356Z 18006KT 29/14 A3006 RMK A01 T02890139  RH  040%=      5-min Rain = 0
KSC1 120357Z 17006KT 29/14 A3006 RMK A01 T02890139  RH  040%=      5-min Rain = 0
KSC1 120358Z 17005KT 29/14 A3006 RMK A01 T02890138  RH  040%=      5-min Rain = 0
KSC1 120359Z 17005KT 29/14 A3006 RMK A01 T02890139  RH  040%=      5-min Rain = 0
KSC1 120400Z 17006KT 29/14 A3006 RMK A01 T02880139  RH  040%=      5-min Rain = 0
KSC1 120401Z 17006KT 29/14 A3006 RMK A01 T02870139  RH  040%=      5-min Rain = 0
KSC1 120402Z 17006KT 29/14 A3006 RMK A01 T02870139  RH  040%=      5-min Rain = 0
KSC1 120403Z 17006KT 29/14 A3006 RMK A01 T02870139  RH  040%=      5-min Rain = 0
KSC1 120404Z 17006KT 29/14 A3006 RMK A01 T02870139  RH  040%=      5-min Rain = 0
KSC1 120405Z 18006KT 29/14 A3006 RMK A01 T02870138  RH  040%=      5-min Rain = 0
KSC1 120406Z 18007KT 29/14 A3006 RMK A01 T02880138  RH  040%=      5-min Rain = 0
KSC1 120407Z 18008KT 29/14 A3006 RMK A01 T02890138  RH  039%=      5-min Rain = 0
KSC1 120408Z 18007KT 29/14 A3006 RMK A01 T02910138  RH  039%=      5-min Rain = 0
KSC1 120409Z 18007KT 29/14 A3006 RMK A01 T02920138  RH  039%=      5-min Rain = 0
KSC1 120410Z 18007KT 29/14 A3006 RMK A01 T02930138  RH  039%=      5-min Rain = 0
KSC1 120411Z 18008KT 29/14 A3006 RMK A01 T02930137  RH  039%=      5-min Rain = 0
KSC1 120412Z 18007KT 29/14 A3006 RMK A01 T02930137  RH  038%=      5-min Rain = 0
KSC1 120413Z 18006KT 29/14 A3006 RMK A01 T02930138  RH  038%=      5-min Rain = 0
KSC1 120414Z 18006KT 29/14 A3006 RMK A01 T02930138  RH  039%=      5-min Rain = 0
KSC1 120415Z 19006KT 29/14 A3007 RMK A01 T02920138  RH  039%=      5-min Rain = 0
KSC1 120416Z 19007KT 29/14 A3007 RMK A01 T02920138  RH  039%=      5-min Rain = 0
KSC1 120417Z 19008KT 29/14 A3007 RMK A01 T02910138  RH  039%=      5-min Rain = 0
KSC1 120418Z 18006KT 29/14 A3007 RMK A01 T02910138  RH  039%=      5-min Rain = 0
KSC1 120419Z 18005KT 29/14 A3007 RMK A01 T02900139  RH  039%=      5-min Rain = 0
KSC1 120420Z 18006KT 29/14 A3007 RMK A01 T02900139  RH  040%=      5-min Rain = 0
KSC1 120421Z 18006KT 29/14 A3007 RMK A01 T02890138  RH  040%=      5-min Rain = 0
KSC1 120422Z 18007KT 29/14 A3006 RMK A01 T02880139  RH  040%=      5-min Rain = 0
KSC1 120423Z 19008KT 29/14 A3006 RMK A01 T02880138  RH  040%=      5-min Rain = 0
KSC1 120424Z 19007KT 29/14 A3006 RMK A01 T02890138  RH  040%=      5-min Rain = 0
KSC1 120425Z 18008KT 29/14 A3007 RMK A01 T02890139  RH  040%=      5-min Rain = 0
KSC1 120426Z 18009KT 29/14 A3007 RMK A01 T02900139  RH  040%=      5-min Rain = 0
KSC1 120427Z 18007KT 29/14 A3007 RMK A01 T02900139  RH  040%=      5-min Rain = 0
KSC1 120428Z 18007KT 29/14 A3007 RMK A01 T02900139  RH  040%=      5-min Rain = 0
KSC1 120429Z 18007KT 29/14 A3007 RMK A01 T02900139  RH  040%=      5-min Rain = 0
KSC1 120430Z 18007KT 29/14 A3007 RMK A01 T02890139  RH  040%=      5-min Rain = 0
KSC1 120431Z 17006KT 29/14 A3007 RMK A01 T02890139  RH  040%=      5-min Rain = 0
KSC1 120432Z 16005KT 29/14 A3007 RMK A01 T02880140  RH  040%=      5-min Rain = 0
KSC1 120433Z 17005KT 29/14 A3007 RMK A01 T02850140  RH  041%=      5-min Rain = 0
KSC1 120434Z 16006KT 28/14 A3007 RMK A01 T02830140  RH  042%=      5-min Rain = 0
KSC1 120435Z 17007KT 28/14 A3007 RMK A01 T02810140  RH  042%=      5-min Rain = 0
KSC1 120436Z 17007KT 28/14 A3007 RMK A01 T02800141  RH  042%=      5-min Rain = 0
KSC1 120437Z 17007KT 28/14 A3007 RMK A01 T02790141  RH  043%=      5-min Rain = 0
KSC1 120438Z 17006KT 28/14 A3007 RMK A01 T02790141  RH  043%=      5-min Rain = 0
KSC1 120439Z 17006KT 28/14 A3007 RMK A01 T02790141  RH  043%=      5-min Rain = 0
KSC1 120440Z 17006KT 28/14 A3007 RMK A01 T02790141  RH  043%=      5-min Rain = 0
KSC1 120441Z 17005KT 28/14 A3007 RMK A01 T02780141  RH  043%=      5-min Rain = 0
KSC1 120442Z 17006KT 28/14 A3007 RMK A01 T02780142  RH  043%=      5-min Rain = 0
KSC1 120443Z 17006KT 28/14 A3007 RMK A01 T02780142  RH  043%=      5-min Rain = 0
KSC1 120444Z 17006KT 28/14 A3007 RMK A01 T02770142  RH  043%=      5-min Rain = 0
KSC1 120445Z 17006KT 28/14 A3007 RMK A01 T02770142  RH  044%=      5-min Rain = 0
KSC1 120446Z 17006KT 28/14 A3007 RMK A01 T02770142  RH  044%=      5-min Rain = 0
KSC1 120447Z 17006KT 28/14 A3007 RMK A01 T02760142  RH  044%=      5-min Rain = 0
KSC1 120448Z 17006KT 28/14 A3007 RMK A01 T02760142  RH  044%=      5-min Rain = 0
KSC1 120449Z 17006KT 28/14 A3007 RMK A01 T02750142  RH  044%=      5-min Rain = 0
KSC1 120450Z 17006KT 28/14 A3007 RMK A01 T02750143  RH  044%=      5-min Rain = 0
KSC1 120451Z 17006KT 27/14 A3007 RMK A01 T02740143  RH  044%=      5-min Rain = 0
KSC1 120452Z 17006KT 27/14 A3007 RMK A01 T02740143  RH  045%=      5-min Rain = 0
KSC1 120453Z 17007KT 27/14 A3007 RMK A01 T02740143  RH  045%=      5-min Rain = 0
KSC1 120454Z 17007KT 27/14 A3007 RMK A01 T02730143  RH  045%=      5-min Rain = 0
KSC1 120455Z 17007KT 27/14 A3007 RMK A01 T02740143  RH  045%=      5-min Rain = 0
KSC1 120456Z 17007KT 27/14 A3007 RMK A01 T02740143  RH  045%=      5-min Rain = 0
KSC1 120457Z 16007KT 27/14 A3007 RMK A01 T02730143  RH  045%=      5-min Rain = 0
KSC1 120458Z 17007KT 27/14 A3007 RMK A01 T02730143  RH  045%=      5-min Rain = 0
KSC1 120459Z 17006KT 27/14 A3007 RMK A01 T02740143  RH  045%=      5-min Rain = 0

Page generated in 0.0329 seconds.